<?xml version="1.0" encoding="UTF-8" standalone="no" ?>
<gpx xmlns="http://www.topografix.com/GPX/1/1" xmlns:xsi="http://www.w3.org/2001/XMLSchema-instance" xsi:schemaLocation="http://www.topografix.com/GPX/1/1 http://www.topografix.com/GPX/1/1/gpx.xsd" version="1.1" creator="VisuGPX - https://www.visugpx.com">
  <metadata>
    <name>Rozier en Donzy Reco</name>
    <desc><![CDATA[Boucle liaison des circuits de Rozier en Donzy et de Bussières]]></desc>
  </metadata>
  <trk>
    <name><![CDATA[20190228162228-YqME5]]></name>
    <trkseg>
      <trkpt lat="45.80056" lon="4.27288">
        <ele>543.199</ele>
        <time>2019-02-28T13:00:00Z</time>
      </trkpt>
      <trkpt lat="45.80052" lon="4.27277">
        <ele>543.058</ele>
        <time>2019-02-28T13:00:06Z</time>
      </trkpt>
      <trkpt lat="45.80047" lon="4.27266">
        <ele>543.15</ele>
        <time>2019-02-28T13:00:12Z</time>
      </trkpt>
      <trkpt lat="45.80043" lon="4.27257">
        <ele>543.083</ele>
        <time>2019-02-28T13:00:17Z</time>
      </trkpt>
      <trkpt lat="45.80042" lon="4.2725">
        <ele>542.824</ele>
        <time>2019-02-28T13:00:23Z</time>
      </trkpt>
      <trkpt lat="45.80045" lon="4.27252">
        <ele>542.74</ele>
        <time>2019-02-28T13:00:29Z</time>
      </trkpt>
      <trkpt lat="45.80048" lon="4.27254">
        <ele>542.426</ele>
        <time>2019-02-28T13:00:34Z</time>
      </trkpt>
      <trkpt lat="45.80047" lon="4.27251">
        <ele>542.398</ele>
        <time>2019-02-28T13:00:40Z</time>
      </trkpt>
      <trkpt lat="45.80044" lon="4.27237">
        <ele>542.373</ele>
        <time>2019-02-28T13:00:45Z</time>
      </trkpt>
      <trkpt lat="45.80039" lon="4.2722">
        <ele>542.245</ele>
        <time>2019-02-28T13:00:51Z</time>
      </trkpt>
      <trkpt lat="45.80038" lon="4.27206">
        <ele>542.072</ele>
        <time>2019-02-28T13:00:57Z</time>
      </trkpt>
      <trkpt lat="45.80036" lon="4.27194">
        <ele>542.059</ele>
        <time>2019-02-28T13:01:03Z</time>
      </trkpt>
      <trkpt lat="45.80035" lon="4.2718">
        <ele>541.941</ele>
        <time>2019-02-28T13:01:09Z</time>
      </trkpt>
      <trkpt lat="45.80035" lon="4.27169">
        <ele>541.946</ele>
        <time>2019-02-28T13:01:14Z</time>
      </trkpt>
      <trkpt lat="45.80034" lon="4.27157">
        <ele>541.569</ele>
        <time>2019-02-28T13:01:20Z</time>
      </trkpt>
      <trkpt lat="45.80035" lon="4.27146">
        <ele>541.288</ele>
        <time>2019-02-28T13:01:25Z</time>
      </trkpt>
      <trkpt lat="45.80035" lon="4.27134">
        <ele>540.927</ele>
        <time>2019-02-28T13:01:31Z</time>
      </trkpt>
      <trkpt lat="45.80034" lon="4.27121">
        <ele>540.811</ele>
        <time>2019-02-28T13:01:36Z</time>
      </trkpt>
      <trkpt lat="45.80034" lon="4.27106">
        <ele>540.775</ele>
        <time>2019-02-28T13:01:42Z</time>
      </trkpt>
      <trkpt lat="45.80034" lon="4.27091">
        <ele>540.949</ele>
        <time>2019-02-28T13:01:48Z</time>
      </trkpt>
      <trkpt lat="45.80034" lon="4.27078">
        <ele>540.876</ele>
        <time>2019-02-28T13:01:54Z</time>
      </trkpt>
      <trkpt lat="45.80033" lon="4.27068">
        <ele>540.878</ele>
        <time>2019-02-28T13:01:59Z</time>
      </trkpt>
      <trkpt lat="45.80033" lon="4.27052">
        <ele>541.226</ele>
        <time>2019-02-28T13:02:05Z</time>
      </trkpt>
      <trkpt lat="45.80032" lon="4.27038">
        <ele>541.405</ele>
        <time>2019-02-28T13:02:11Z</time>
      </trkpt>
      <trkpt lat="45.80032" lon="4.27027">
        <ele>541.294</ele>
        <time>2019-02-28T13:02:16Z</time>
      </trkpt>
      <trkpt lat="45.80033" lon="4.27015">
        <ele>541.048</ele>
        <time>2019-02-28T13:02:21Z</time>
      </trkpt>
      <trkpt lat="45.80032" lon="4.27003">
        <ele>540.634</ele>
        <time>2019-02-28T13:02:27Z</time>
      </trkpt>
      <trkpt lat="45.80031" lon="4.26991">
        <ele>540.16</ele>
        <time>2019-02-28T13:02:33Z</time>
      </trkpt>
      <trkpt lat="45.8003" lon="4.26981">
        <ele>539.764</ele>
        <time>2019-02-28T13:02:39Z</time>
      </trkpt>
      <trkpt lat="45.8003" lon="4.26967">
        <ele>539.587</ele>
        <time>2019-02-28T13:02:45Z</time>
      </trkpt>
      <trkpt lat="45.80031" lon="4.26957">
        <ele>539.599</ele>
        <time>2019-02-28T13:02:50Z</time>
      </trkpt>
      <trkpt lat="45.80031" lon="4.26944">
        <ele>539.535</ele>
        <time>2019-02-28T13:02:56Z</time>
      </trkpt>
      <trkpt lat="45.8003" lon="4.26931">
        <ele>539.126</ele>
        <time>2019-02-28T13:03:02Z</time>
      </trkpt>
      <trkpt lat="45.80029" lon="4.26921">
        <ele>538.884</ele>
        <time>2019-02-28T13:03:08Z</time>
      </trkpt>
      <trkpt lat="45.80029" lon="4.26911">
        <ele>538.58</ele>
        <time>2019-02-28T13:03:14Z</time>
      </trkpt>
      <trkpt lat="45.80028" lon="4.269">
        <ele>538.645</ele>
        <time>2019-02-28T13:03:19Z</time>
      </trkpt>
      <trkpt lat="45.80028" lon="4.2689">
        <ele>538.601</ele>
        <time>2019-02-28T13:03:25Z</time>
      </trkpt>
      <trkpt lat="45.80028" lon="4.26879">
        <ele>538.356</ele>
        <time>2019-02-28T13:03:30Z</time>
      </trkpt>
      <trkpt lat="45.8003" lon="4.2687">
        <ele>538.04</ele>
        <time>2019-02-28T13:03:36Z</time>
      </trkpt>
      <trkpt lat="45.80034" lon="4.26864">
        <ele>537.744</ele>
        <time>2019-02-28T13:03:42Z</time>
      </trkpt>
      <trkpt lat="45.80044" lon="4.26863">
        <ele>537.789</ele>
        <time>2019-02-28T13:03:48Z</time>
      </trkpt>
      <trkpt lat="45.80051" lon="4.26863">
        <ele>537.694</ele>
        <time>2019-02-28T13:03:54Z</time>
      </trkpt>
      <trkpt lat="45.80059" lon="4.26862">
        <ele>537.471</ele>
        <time>2019-02-28T13:04:00Z</time>
      </trkpt>
      <trkpt lat="45.80067" lon="4.26864">
        <ele>537.494</ele>
        <time>2019-02-28T13:04:06Z</time>
      </trkpt>
      <trkpt lat="45.80074" lon="4.26865">
        <ele>537.138</ele>
        <time>2019-02-28T13:04:12Z</time>
      </trkpt>
      <trkpt lat="45.80082" lon="4.26862">
        <ele>537.227</ele>
        <time>2019-02-28T13:04:17Z</time>
      </trkpt>
      <trkpt lat="45.8009" lon="4.26856">
        <ele>536.949</ele>
        <time>2019-02-28T13:04:23Z</time>
      </trkpt>
      <trkpt lat="45.80098" lon="4.26851">
        <ele>537.037</ele>
        <time>2019-02-28T13:04:28Z</time>
      </trkpt>
      <trkpt lat="45.80104" lon="4.26847">
        <ele>537.127</ele>
        <time>2019-02-28T13:04:33Z</time>
      </trkpt>
      <trkpt lat="45.8011" lon="4.26842">
        <ele>536.97</ele>
        <time>2019-02-28T13:04:39Z</time>
      </trkpt>
      <trkpt lat="45.80117" lon="4.26836">
        <ele>536.866</ele>
        <time>2019-02-28T13:04:45Z</time>
      </trkpt>
      <trkpt lat="45.80124" lon="4.26832">
        <ele>536.701</ele>
        <time>2019-02-28T13:04:50Z</time>
      </trkpt>
      <trkpt lat="45.80131" lon="4.26823">
        <ele>536.802</ele>
        <time>2019-02-28T13:04:56Z</time>
      </trkpt>
      <trkpt lat="45.80138" lon="4.26815">
        <ele>536.992</ele>
        <time>2019-02-28T13:05:02Z</time>
      </trkpt>
      <trkpt lat="45.80146" lon="4.26807">
        <ele>536.935</ele>
        <time>2019-02-28T13:05:07Z</time>
      </trkpt>
      <trkpt lat="45.80152" lon="4.268">
        <ele>536.484</ele>
        <time>2019-02-28T13:05:13Z</time>
      </trkpt>
      <trkpt lat="45.80157" lon="4.2679">
        <ele>536.165</ele>
        <time>2019-02-28T13:05:19Z</time>
      </trkpt>
      <trkpt lat="45.80162" lon="4.26782">
        <ele>535.834</ele>
        <time>2019-02-28T13:05:24Z</time>
      </trkpt>
      <trkpt lat="45.80168" lon="4.26774">
        <ele>535.343</ele>
        <time>2019-02-28T13:05:30Z</time>
      </trkpt>
      <trkpt lat="45.80173" lon="4.26763">
        <ele>535.426</ele>
        <time>2019-02-28T13:05:36Z</time>
      </trkpt>
      <trkpt lat="45.80178" lon="4.26753">
        <ele>535.082</ele>
        <time>2019-02-28T13:05:42Z</time>
      </trkpt>
      <trkpt lat="45.80182" lon="4.26743">
        <ele>534.66</ele>
        <time>2019-02-28T13:05:47Z</time>
      </trkpt>
      <trkpt lat="45.80185" lon="4.26729">
        <ele>534.258</ele>
        <time>2019-02-28T13:05:53Z</time>
      </trkpt>
      <trkpt lat="45.80186" lon="4.26716">
        <ele>533.785</ele>
        <time>2019-02-28T13:05:59Z</time>
      </trkpt>
      <trkpt lat="45.80185" lon="4.26706">
        <ele>533.788</ele>
        <time>2019-02-28T13:06:04Z</time>
      </trkpt>
      <trkpt lat="45.80184" lon="4.26696">
        <ele>533.624</ele>
        <time>2019-02-28T13:06:09Z</time>
      </trkpt>
      <trkpt lat="45.80186" lon="4.26682">
        <ele>532.804</ele>
        <time>2019-02-28T13:06:15Z</time>
      </trkpt>
      <trkpt lat="45.80187" lon="4.2667">
        <ele>532.6</ele>
        <time>2019-02-28T13:06:21Z</time>
      </trkpt>
      <trkpt lat="45.80187" lon="4.26657">
        <ele>531.969</ele>
        <time>2019-02-28T13:06:27Z</time>
      </trkpt>
      <trkpt lat="45.80189" lon="4.26645">
        <ele>531.435</ele>
        <time>2019-02-28T13:06:32Z</time>
      </trkpt>
      <trkpt lat="45.80191" lon="4.26633">
        <ele>531.293</ele>
        <time>2019-02-28T13:06:38Z</time>
      </trkpt>
      <trkpt lat="45.8019" lon="4.26619">
        <ele>531.086</ele>
        <time>2019-02-28T13:06:44Z</time>
      </trkpt>
      <trkpt lat="45.80191" lon="4.26604">
        <ele>530.655</ele>
        <time>2019-02-28T13:06:50Z</time>
      </trkpt>
      <trkpt lat="45.80191" lon="4.26592">
        <ele>530.122</ele>
        <time>2019-02-28T13:06:56Z</time>
      </trkpt>
      <trkpt lat="45.80192" lon="4.26579">
        <ele>529.71</ele>
        <time>2019-02-28T13:07:02Z</time>
      </trkpt>
      <trkpt lat="45.80193" lon="4.26569">
        <ele>529.233</ele>
        <time>2019-02-28T13:07:07Z</time>
      </trkpt>
      <trkpt lat="45.80193" lon="4.26556">
        <ele>528.7</ele>
        <time>2019-02-28T13:07:13Z</time>
      </trkpt>
      <trkpt lat="45.80194" lon="4.26543">
        <ele>528.234</ele>
        <time>2019-02-28T13:07:19Z</time>
      </trkpt>
      <trkpt lat="45.80194" lon="4.26532">
        <ele>528.162</ele>
        <time>2019-02-28T13:07:24Z</time>
      </trkpt>
      <trkpt lat="45.80199" lon="4.2652">
        <ele>527.947</ele>
        <time>2019-02-28T13:07:30Z</time>
      </trkpt>
      <trkpt lat="45.80204" lon="4.2651">
        <ele>527.672</ele>
        <time>2019-02-28T13:07:36Z</time>
      </trkpt>
      <trkpt lat="45.80208" lon="4.265">
        <ele>527.457</ele>
        <time>2019-02-28T13:07:42Z</time>
      </trkpt>
      <trkpt lat="45.80211" lon="4.2649">
        <ele>527.081</ele>
        <time>2019-02-28T13:07:48Z</time>
      </trkpt>
      <trkpt lat="45.80217" lon="4.26479">
        <ele>526.856</ele>
        <time>2019-02-28T13:07:54Z</time>
      </trkpt>
      <trkpt lat="45.80221" lon="4.26469">
        <ele>526.277</ele>
        <time>2019-02-28T13:08:00Z</time>
      </trkpt>
      <trkpt lat="45.80227" lon="4.26457">
        <ele>525.522</ele>
        <time>2019-02-28T13:08:06Z</time>
      </trkpt>
      <trkpt lat="45.80231" lon="4.26448">
        <ele>524.96</ele>
        <time>2019-02-28T13:08:12Z</time>
      </trkpt>
      <trkpt lat="45.80235" lon="4.26439">
        <ele>524.239</ele>
        <time>2019-02-28T13:08:17Z</time>
      </trkpt>
      <trkpt lat="45.80239" lon="4.2643">
        <ele>523.592</ele>
        <time>2019-02-28T13:08:23Z</time>
      </trkpt>
      <trkpt lat="45.80242" lon="4.26421">
        <ele>523.481</ele>
        <time>2019-02-28T13:08:28Z</time>
      </trkpt>
      <trkpt lat="45.80246" lon="4.26411">
        <ele>523.418</ele>
        <time>2019-02-28T13:08:34Z</time>
      </trkpt>
      <trkpt lat="45.80251" lon="4.26403">
        <ele>523.35</ele>
        <time>2019-02-28T13:08:40Z</time>
      </trkpt>
      <trkpt lat="45.80256" lon="4.264">
        <ele>523.102</ele>
        <time>2019-02-28T13:08:46Z</time>
      </trkpt>
      <trkpt lat="45.80265" lon="4.26396">
        <ele>522.961</ele>
        <time>2019-02-28T13:08:52Z</time>
      </trkpt>
      <trkpt lat="45.8027" lon="4.26394">
        <ele>522.724</ele>
        <time>2019-02-28T13:08:57Z</time>
      </trkpt>
      <trkpt lat="45.80274" lon="4.26395">
        <ele>522.163</ele>
        <time>2019-02-28T13:09:03Z</time>
      </trkpt>
      <trkpt lat="45.8028" lon="4.26397">
        <ele>521.984</ele>
        <time>2019-02-28T13:09:09Z</time>
      </trkpt>
      <trkpt lat="45.80291" lon="4.26397">
        <ele>521.76</ele>
        <time>2019-02-28T13:09:15Z</time>
      </trkpt>
      <trkpt lat="45.80298" lon="4.26397">
        <ele>521.42</ele>
        <time>2019-02-28T13:09:21Z</time>
      </trkpt>
      <trkpt lat="45.80306" lon="4.26396">
        <ele>520.444</ele>
        <time>2019-02-28T13:09:27Z</time>
      </trkpt>
      <trkpt lat="45.80317" lon="4.26393">
        <ele>518.481</ele>
        <time>2019-02-28T13:09:33Z</time>
      </trkpt>
      <trkpt lat="45.80325" lon="4.26391">
        <ele>516.444</ele>
        <time>2019-02-28T13:09:39Z</time>
      </trkpt>
      <trkpt lat="45.80332" lon="4.26385">
        <ele>515.259</ele>
        <time>2019-02-28T13:09:45Z</time>
      </trkpt>
      <trkpt lat="45.80338" lon="4.26379">
        <ele>514.496</ele>
        <time>2019-02-28T13:09:51Z</time>
      </trkpt>
      <trkpt lat="45.80343" lon="4.26374">
        <ele>513.569</ele>
        <time>2019-02-28T13:09:57Z</time>
      </trkpt>
      <trkpt lat="45.80352" lon="4.26365">
        <ele>511.947</ele>
        <time>2019-02-28T13:10:03Z</time>
      </trkpt>
      <trkpt lat="45.8036" lon="4.26359">
        <ele>511.357</ele>
        <time>2019-02-28T13:10:09Z</time>
      </trkpt>
      <trkpt lat="45.80368" lon="4.26354">
        <ele>511.291</ele>
        <time>2019-02-28T13:10:14Z</time>
      </trkpt>
      <trkpt lat="45.80374" lon="4.2635">
        <ele>511.149</ele>
        <time>2019-02-28T13:10:19Z</time>
      </trkpt>
      <trkpt lat="45.80379" lon="4.26347">
        <ele>511.535</ele>
        <time>2019-02-28T13:10:24Z</time>
      </trkpt>
      <trkpt lat="45.80384" lon="4.26345">
        <ele>511.268</ele>
        <time>2019-02-28T13:10:29Z</time>
      </trkpt>
      <trkpt lat="45.80388" lon="4.2634">
        <ele>510.652</ele>
        <time>2019-02-28T13:10:35Z</time>
      </trkpt>
      <trkpt lat="45.80395" lon="4.26333">
        <ele>509.753</ele>
        <time>2019-02-28T13:10:41Z</time>
      </trkpt>
      <trkpt lat="45.80401" lon="4.26329">
        <ele>509.208</ele>
        <time>2019-02-28T13:10:46Z</time>
      </trkpt>
      <trkpt lat="45.80405" lon="4.26326">
        <ele>508.728</ele>
        <time>2019-02-28T13:10:51Z</time>
      </trkpt>
      <trkpt lat="45.80412" lon="4.26319">
        <ele>508.301</ele>
        <time>2019-02-28T13:10:57Z</time>
      </trkpt>
      <trkpt lat="45.80421" lon="4.26308">
        <ele>507.798</ele>
        <time>2019-02-28T13:11:03Z</time>
      </trkpt>
      <trkpt lat="45.80426" lon="4.26294">
        <ele>507.615</ele>
        <time>2019-02-28T13:11:09Z</time>
      </trkpt>
      <trkpt lat="45.80428" lon="4.26285">
        <ele>507.363</ele>
        <time>2019-02-28T13:11:14Z</time>
      </trkpt>
      <trkpt lat="45.80428" lon="4.26272">
        <ele>507.255</ele>
        <time>2019-02-28T13:11:20Z</time>
      </trkpt>
      <trkpt lat="45.80427" lon="4.26258">
        <ele>507.354</ele>
        <time>2019-02-28T13:11:26Z</time>
      </trkpt>
      <trkpt lat="45.80426" lon="4.26248">
        <ele>507.678</ele>
        <time>2019-02-28T13:11:32Z</time>
      </trkpt>
      <trkpt lat="45.80424" lon="4.2624">
        <ele>507.842</ele>
        <time>2019-02-28T13:11:37Z</time>
      </trkpt>
      <trkpt lat="45.8042" lon="4.26228">
        <ele>507.975</ele>
        <time>2019-02-28T13:11:43Z</time>
      </trkpt>
      <trkpt lat="45.80417" lon="4.26217">
        <ele>507.768</ele>
        <time>2019-02-28T13:11:49Z</time>
      </trkpt>
      <trkpt lat="45.80416" lon="4.2621">
        <ele>507.032</ele>
        <time>2019-02-28T13:11:54Z</time>
      </trkpt>
      <trkpt lat="45.80415" lon="4.26197">
        <ele>506.546</ele>
        <time>2019-02-28T13:12:00Z</time>
      </trkpt>
      <trkpt lat="45.80413" lon="4.26188">
        <ele>506.541</ele>
        <time>2019-02-28T13:12:06Z</time>
      </trkpt>
      <trkpt lat="45.80413" lon="4.26177">
        <ele>507.091</ele>
        <time>2019-02-28T13:12:11Z</time>
      </trkpt>
      <trkpt lat="45.80413" lon="4.26165">
        <ele>507.374</ele>
        <time>2019-02-28T13:12:17Z</time>
      </trkpt>
      <trkpt lat="45.80413" lon="4.26153">
        <ele>507.531</ele>
        <time>2019-02-28T13:12:23Z</time>
      </trkpt>
      <trkpt lat="45.80414" lon="4.26146">
        <ele>508.095</ele>
        <time>2019-02-28T13:12:28Z</time>
      </trkpt>
      <trkpt lat="45.80417" lon="4.26134">
        <ele>508.478</ele>
        <time>2019-02-28T13:12:34Z</time>
      </trkpt>
      <trkpt lat="45.80419" lon="4.26121">
        <ele>508.906</ele>
        <time>2019-02-28T13:12:40Z</time>
      </trkpt>
      <trkpt lat="45.8042" lon="4.26109">
        <ele>508.936</ele>
        <time>2019-02-28T13:12:46Z</time>
      </trkpt>
      <trkpt lat="45.80421" lon="4.26099">
        <ele>508.937</ele>
        <time>2019-02-28T13:12:51Z</time>
      </trkpt>
      <trkpt lat="45.80423" lon="4.26088">
        <ele>508.997</ele>
        <time>2019-02-28T13:12:57Z</time>
      </trkpt>
      <trkpt lat="45.80425" lon="4.26076">
        <ele>509.226</ele>
        <time>2019-02-28T13:13:03Z</time>
      </trkpt>
      <trkpt lat="45.80429" lon="4.26066">
        <ele>509.125</ele>
        <time>2019-02-28T13:13:09Z</time>
      </trkpt>
      <trkpt lat="45.80432" lon="4.26053">
        <ele>509.549</ele>
        <time>2019-02-28T13:13:15Z</time>
      </trkpt>
      <trkpt lat="45.80434" lon="4.26044">
        <ele>510.009</ele>
        <time>2019-02-28T13:13:21Z</time>
      </trkpt>
      <trkpt lat="45.80438" lon="4.26033">
        <ele>510.311</ele>
        <time>2019-02-28T13:13:27Z</time>
      </trkpt>
      <trkpt lat="45.80441" lon="4.26027">
        <ele>510.34</ele>
        <time>2019-02-28T13:13:33Z</time>
      </trkpt>
      <trkpt lat="45.80446" lon="4.26022">
        <ele>510.292</ele>
        <time>2019-02-28T13:13:38Z</time>
      </trkpt>
      <trkpt lat="45.80451" lon="4.26012">
        <ele>510.44</ele>
        <time>2019-02-28T13:13:44Z</time>
      </trkpt>
      <trkpt lat="45.80453" lon="4.25998">
        <ele>511.099</ele>
        <time>2019-02-28T13:13:50Z</time>
      </trkpt>
      <trkpt lat="45.80454" lon="4.25988">
        <ele>512.192</ele>
        <time>2019-02-28T13:13:56Z</time>
      </trkpt>
      <trkpt lat="45.80453" lon="4.25977">
        <ele>513.16</ele>
        <time>2019-02-28T13:14:02Z</time>
      </trkpt>
      <trkpt lat="45.80452" lon="4.25965">
        <ele>513.732</ele>
        <time>2019-02-28T13:14:08Z</time>
      </trkpt>
      <trkpt lat="45.80447" lon="4.25952">
        <ele>514.117</ele>
        <time>2019-02-28T13:14:14Z</time>
      </trkpt>
      <trkpt lat="45.80444" lon="4.25943">
        <ele>514.283</ele>
        <time>2019-02-28T13:14:19Z</time>
      </trkpt>
      <trkpt lat="45.80443" lon="4.25931">
        <ele>514.549</ele>
        <time>2019-02-28T13:14:25Z</time>
      </trkpt>
      <trkpt lat="45.80441" lon="4.25918">
        <ele>514.706</ele>
        <time>2019-02-28T13:14:31Z</time>
      </trkpt>
      <trkpt lat="45.80439" lon="4.25907">
        <ele>514.779</ele>
        <time>2019-02-28T13:14:37Z</time>
      </trkpt>
      <trkpt lat="45.80435" lon="4.25896">
        <ele>514.933</ele>
        <time>2019-02-28T13:14:43Z</time>
      </trkpt>
      <trkpt lat="45.80433" lon="4.25886">
        <ele>514.878</ele>
        <time>2019-02-28T13:14:49Z</time>
      </trkpt>
      <trkpt lat="45.80432" lon="4.25875">
        <ele>515.216</ele>
        <time>2019-02-28T13:14:55Z</time>
      </trkpt>
      <trkpt lat="45.80429" lon="4.25863">
        <ele>515.054</ele>
        <time>2019-02-28T13:15:01Z</time>
      </trkpt>
      <trkpt lat="45.80427" lon="4.2585">
        <ele>514.804</ele>
        <time>2019-02-28T13:15:07Z</time>
      </trkpt>
      <trkpt lat="45.80426" lon="4.25839">
        <ele>514.803</ele>
        <time>2019-02-28T13:15:13Z</time>
      </trkpt>
      <trkpt lat="45.80423" lon="4.25828">
        <ele>514.338</ele>
        <time>2019-02-28T13:15:19Z</time>
      </trkpt>
      <trkpt lat="45.80421" lon="4.2582">
        <ele>514.208</ele>
        <time>2019-02-28T13:15:24Z</time>
      </trkpt>
      <trkpt lat="45.80419" lon="4.25807">
        <ele>514.275</ele>
        <time>2019-02-28T13:15:30Z</time>
      </trkpt>
      <trkpt lat="45.80417" lon="4.25795">
        <ele>514.673</ele>
        <time>2019-02-28T13:15:36Z</time>
      </trkpt>
      <trkpt lat="45.80415" lon="4.25785">
        <ele>514.708</ele>
        <time>2019-02-28T13:15:42Z</time>
      </trkpt>
      <trkpt lat="45.8041" lon="4.25775">
        <ele>514.763</ele>
        <time>2019-02-28T13:15:48Z</time>
      </trkpt>
      <trkpt lat="45.80406" lon="4.25764">
        <ele>514.576</ele>
        <time>2019-02-28T13:15:54Z</time>
      </trkpt>
      <trkpt lat="45.80402" lon="4.25752">
        <ele>514.325</ele>
        <time>2019-02-28T13:16:00Z</time>
      </trkpt>
      <trkpt lat="45.80398" lon="4.25741">
        <ele>514.163</ele>
        <time>2019-02-28T13:16:06Z</time>
      </trkpt>
      <trkpt lat="45.80394" lon="4.2573">
        <ele>513.625</ele>
        <time>2019-02-28T13:16:12Z</time>
      </trkpt>
      <trkpt lat="45.80393" lon="4.2572">
        <ele>513.311</ele>
        <time>2019-02-28T13:16:17Z</time>
      </trkpt>
      <trkpt lat="45.80389" lon="4.25706">
        <ele>513.174</ele>
        <time>2019-02-28T13:16:23Z</time>
      </trkpt>
      <trkpt lat="45.80386" lon="4.25696">
        <ele>513.057</ele>
        <time>2019-02-28T13:16:29Z</time>
      </trkpt>
      <trkpt lat="45.80383" lon="4.25687">
        <ele>512.921</ele>
        <time>2019-02-28T13:16:34Z</time>
      </trkpt>
      <trkpt lat="45.80378" lon="4.25677">
        <ele>512.593</ele>
        <time>2019-02-28T13:16:40Z</time>
      </trkpt>
      <trkpt lat="45.80372" lon="4.25665">
        <ele>512.656</ele>
        <time>2019-02-28T13:16:46Z</time>
      </trkpt>
      <trkpt lat="45.80366" lon="4.25657">
        <ele>513.136</ele>
        <time>2019-02-28T13:16:52Z</time>
      </trkpt>
      <trkpt lat="45.80361" lon="4.2565">
        <ele>513.253</ele>
        <time>2019-02-28T13:16:57Z</time>
      </trkpt>
      <trkpt lat="45.80355" lon="4.25639">
        <ele>513.16</ele>
        <time>2019-02-28T13:17:03Z</time>
      </trkpt>
      <trkpt lat="45.80351" lon="4.25633">
        <ele>513.296</ele>
        <time>2019-02-28T13:17:08Z</time>
      </trkpt>
      <trkpt lat="45.80347" lon="4.25625">
        <ele>513.558</ele>
        <time>2019-02-28T13:17:13Z</time>
      </trkpt>
      <trkpt lat="45.80344" lon="4.25617">
        <ele>513.64</ele>
        <time>2019-02-28T13:17:18Z</time>
      </trkpt>
      <trkpt lat="45.80349" lon="4.25608">
        <ele>513.727</ele>
        <time>2019-02-28T13:17:24Z</time>
      </trkpt>
      <trkpt lat="45.80356" lon="4.25603">
        <ele>514.069</ele>
        <time>2019-02-28T13:17:30Z</time>
      </trkpt>
      <trkpt lat="45.80363" lon="4.25601">
        <ele>514.214</ele>
        <time>2019-02-28T13:17:35Z</time>
      </trkpt>
      <trkpt lat="45.80371" lon="4.25598">
        <ele>514.325</ele>
        <time>2019-02-28T13:17:41Z</time>
      </trkpt>
      <trkpt lat="45.80381" lon="4.25593">
        <ele>514.565</ele>
        <time>2019-02-28T13:17:47Z</time>
      </trkpt>
      <trkpt lat="45.80388" lon="4.25592">
        <ele>514.871</ele>
        <time>2019-02-28T13:17:53Z</time>
      </trkpt>
      <trkpt lat="45.80396" lon="4.25588">
        <ele>515.005</ele>
        <time>2019-02-28T13:17:59Z</time>
      </trkpt>
      <trkpt lat="45.80404" lon="4.25583">
        <ele>515.178</ele>
        <time>2019-02-28T13:18:05Z</time>
      </trkpt>
      <trkpt lat="45.80413" lon="4.2558">
        <ele>515.348</ele>
        <time>2019-02-28T13:18:11Z</time>
      </trkpt>
      <trkpt lat="45.80421" lon="4.25576">
        <ele>515.28</ele>
        <time>2019-02-28T13:18:17Z</time>
      </trkpt>
      <trkpt lat="45.80427" lon="4.25574">
        <ele>515.239</ele>
        <time>2019-02-28T13:18:22Z</time>
      </trkpt>
      <trkpt lat="45.80436" lon="4.2557">
        <ele>514.937</ele>
        <time>2019-02-28T13:18:28Z</time>
      </trkpt>
      <trkpt lat="45.80444" lon="4.25567">
        <ele>514.676</ele>
        <time>2019-02-28T13:18:33Z</time>
      </trkpt>
      <trkpt lat="45.8045" lon="4.25564">
        <ele>514.296</ele>
        <time>2019-02-28T13:18:38Z</time>
      </trkpt>
      <trkpt lat="45.80461" lon="4.25564">
        <ele>513.857</ele>
        <time>2019-02-28T13:18:44Z</time>
      </trkpt>
      <trkpt lat="45.80468" lon="4.25562">
        <ele>513.429</ele>
        <time>2019-02-28T13:18:50Z</time>
      </trkpt>
      <trkpt lat="45.80474" lon="4.25561">
        <ele>513.37</ele>
        <time>2019-02-28T13:18:55Z</time>
      </trkpt>
      <trkpt lat="45.80483" lon="4.25562">
        <ele>513.24</ele>
        <time>2019-02-28T13:19:01Z</time>
      </trkpt>
      <trkpt lat="45.8049" lon="4.25566">
        <ele>513.604</ele>
        <time>2019-02-28T13:19:06Z</time>
      </trkpt>
      <trkpt lat="45.80496" lon="4.25574">
        <ele>513.371</ele>
        <time>2019-02-28T13:19:12Z</time>
      </trkpt>
      <trkpt lat="45.80502" lon="4.2558">
        <ele>512.715</ele>
        <time>2019-02-28T13:19:18Z</time>
      </trkpt>
      <trkpt lat="45.8051" lon="4.25586">
        <ele>512.01</ele>
        <time>2019-02-28T13:19:24Z</time>
      </trkpt>
      <trkpt lat="45.80513" lon="4.25592">
        <ele>511.234</ele>
        <time>2019-02-28T13:19:30Z</time>
      </trkpt>
      <trkpt lat="45.8052" lon="4.25598">
        <ele>510.723</ele>
        <time>2019-02-28T13:19:36Z</time>
      </trkpt>
      <trkpt lat="45.8053" lon="4.25599">
        <ele>509.919</ele>
        <time>2019-02-28T13:19:42Z</time>
      </trkpt>
      <trkpt lat="45.80537" lon="4.25601">
        <ele>508.997</ele>
        <time>2019-02-28T13:19:48Z</time>
      </trkpt>
      <trkpt lat="45.80544" lon="4.25606">
        <ele>507.873</ele>
        <time>2019-02-28T13:19:54Z</time>
      </trkpt>
      <trkpt lat="45.80548" lon="4.25609">
        <ele>507.094</ele>
        <time>2019-02-28T13:20:00Z</time>
      </trkpt>
      <trkpt lat="45.80553" lon="4.25617">
        <ele>506.251</ele>
        <time>2019-02-28T13:20:05Z</time>
      </trkpt>
      <trkpt lat="45.80564" lon="4.25625">
        <ele>505.128</ele>
        <time>2019-02-28T13:20:11Z</time>
      </trkpt>
      <trkpt lat="45.8057" lon="4.25635">
        <ele>503.247</ele>
        <time>2019-02-28T13:20:17Z</time>
      </trkpt>
      <trkpt lat="45.80571" lon="4.25641">
        <ele>501.57</ele>
        <time>2019-02-28T13:20:22Z</time>
      </trkpt>
      <trkpt lat="45.80575" lon="4.25652">
        <ele>499.35</ele>
        <time>2019-02-28T13:20:28Z</time>
      </trkpt>
      <trkpt lat="45.80576" lon="4.2566">
        <ele>497.399</ele>
        <time>2019-02-28T13:20:33Z</time>
      </trkpt>
      <trkpt lat="45.80578" lon="4.25669">
        <ele>495.327</ele>
        <time>2019-02-28T13:20:39Z</time>
      </trkpt>
      <trkpt lat="45.80579" lon="4.25678">
        <ele>492.925</ele>
        <time>2019-02-28T13:20:45Z</time>
      </trkpt>
      <trkpt lat="45.80582" lon="4.25687">
        <ele>490.096</ele>
        <time>2019-02-28T13:20:51Z</time>
      </trkpt>
      <trkpt lat="45.80589" lon="4.25696">
        <ele>488.19</ele>
        <time>2019-02-28T13:20:56Z</time>
      </trkpt>
      <trkpt lat="45.80597" lon="4.25702">
        <ele>487.401</ele>
        <time>2019-02-28T13:21:01Z</time>
      </trkpt>
      <trkpt lat="45.80604" lon="4.25702">
        <ele>487.235</ele>
        <time>2019-02-28T13:21:06Z</time>
      </trkpt>
      <trkpt lat="45.8061" lon="4.257">
        <ele>487.424</ele>
        <time>2019-02-28T13:21:12Z</time>
      </trkpt>
      <trkpt lat="45.80615" lon="4.25698">
        <ele>487.235</ele>
        <time>2019-02-28T13:21:18Z</time>
      </trkpt>
      <trkpt lat="45.80623" lon="4.25703">
        <ele>486.791</ele>
        <time>2019-02-28T13:21:24Z</time>
      </trkpt>
      <trkpt lat="45.80633" lon="4.25704">
        <ele>486.502</ele>
        <time>2019-02-28T13:21:30Z</time>
      </trkpt>
      <trkpt lat="45.80636" lon="4.25703">
        <ele>486.15</ele>
        <time>2019-02-28T13:21:36Z</time>
      </trkpt>
      <trkpt lat="45.80634" lon="4.257">
        <ele>485.531</ele>
        <time>2019-02-28T13:21:41Z</time>
      </trkpt>
      <trkpt lat="45.80634" lon="4.257">
        <ele>484.452</ele>
        <time>2019-02-28T13:21:47Z</time>
      </trkpt>
      <trkpt lat="45.80634" lon="4.257">
        <ele>483.185</ele>
        <time>2019-02-28T13:21:53Z</time>
      </trkpt>
      <trkpt lat="45.80634" lon="4.25703">
        <ele>482.129</ele>
        <time>2019-02-28T13:21:59Z</time>
      </trkpt>
      <trkpt lat="45.80637" lon="4.25706">
        <ele>481.127</ele>
        <time>2019-02-28T13:22:05Z</time>
      </trkpt>
      <trkpt lat="45.80636" lon="4.25706">
        <ele>481.1</ele>
        <time>2019-02-28T13:22:11Z</time>
      </trkpt>
      <trkpt lat="45.80637" lon="4.25708">
        <ele>481.129</ele>
        <time>2019-02-28T13:22:16Z</time>
      </trkpt>
      <trkpt lat="45.80641" lon="4.25715">
        <ele>481.372</ele>
        <time>2019-02-28T13:22:22Z</time>
      </trkpt>
      <trkpt lat="45.80642" lon="4.25716">
        <ele>481.815</ele>
        <time>2019-02-28T13:22:28Z</time>
      </trkpt>
      <trkpt lat="45.80643" lon="4.25716">
        <ele>482.371</ele>
        <time>2019-02-28T13:22:34Z</time>
      </trkpt>
      <trkpt lat="45.80643" lon="4.25713">
        <ele>482.116</ele>
        <time>2019-02-28T13:22:39Z</time>
      </trkpt>
      <trkpt lat="45.80643" lon="4.25713">
        <ele>482.027</ele>
        <time>2019-02-28T13:22:45Z</time>
      </trkpt>
      <trkpt lat="45.80644" lon="4.25711">
        <ele>482.593</ele>
        <time>2019-02-28T13:22:51Z</time>
      </trkpt>
      <trkpt lat="45.8064" lon="4.257">
        <ele>482.815</ele>
        <time>2019-02-28T13:22:56Z</time>
      </trkpt>
      <trkpt lat="45.80637" lon="4.25689">
        <ele>483.357</ele>
        <time>2019-02-28T13:23:02Z</time>
      </trkpt>
      <trkpt lat="45.80636" lon="4.25675">
        <ele>483.475</ele>
        <time>2019-02-28T13:23:07Z</time>
      </trkpt>
      <trkpt lat="45.80635" lon="4.25673">
        <ele>483.287</ele>
        <time>2019-02-28T13:23:12Z</time>
      </trkpt>
      <trkpt lat="45.80627" lon="4.25652">
        <ele>482.902</ele>
        <time>2019-02-28T13:23:18Z</time>
      </trkpt>
      <trkpt lat="45.8063" lon="4.25646">
        <ele>483.032</ele>
        <time>2019-02-28T13:23:24Z</time>
      </trkpt>
      <trkpt lat="45.8063" lon="4.25643">
        <ele>482.876</ele>
        <time>2019-02-28T13:23:29Z</time>
      </trkpt>
      <trkpt lat="45.80634" lon="4.25636">
        <ele>483.376</ele>
        <time>2019-02-28T13:23:34Z</time>
      </trkpt>
      <trkpt lat="45.80634" lon="4.25623">
        <ele>483.975</ele>
        <time>2019-02-28T13:23:39Z</time>
      </trkpt>
      <trkpt lat="45.80631" lon="4.25606">
        <ele>484.536</ele>
        <time>2019-02-28T13:23:45Z</time>
      </trkpt>
      <trkpt lat="45.80629" lon="4.25595">
        <ele>485.713</ele>
        <time>2019-02-28T13:23:51Z</time>
      </trkpt>
      <trkpt lat="45.80629" lon="4.25586">
        <ele>486.626</ele>
        <time>2019-02-28T13:23:56Z</time>
      </trkpt>
      <trkpt lat="45.80625" lon="4.25574">
        <ele>487.375</ele>
        <time>2019-02-28T13:24:02Z</time>
      </trkpt>
      <trkpt lat="45.80621" lon="4.25564">
        <ele>488.448</ele>
        <time>2019-02-28T13:24:08Z</time>
      </trkpt>
      <trkpt lat="45.80617" lon="4.25551">
        <ele>489.333</ele>
        <time>2019-02-28T13:24:13Z</time>
      </trkpt>
      <trkpt lat="45.80614" lon="4.25543">
        <ele>490.386</ele>
        <time>2019-02-28T13:24:19Z</time>
      </trkpt>
      <trkpt lat="45.80611" lon="4.25536">
        <ele>491.291</ele>
        <time>2019-02-28T13:24:24Z</time>
      </trkpt>
      <trkpt lat="45.80609" lon="4.25528">
        <ele>492.585</ele>
        <time>2019-02-28T13:24:30Z</time>
      </trkpt>
      <trkpt lat="45.80608" lon="4.25513">
        <ele>493.662</ele>
        <time>2019-02-28T13:24:36Z</time>
      </trkpt>
      <trkpt lat="45.80607" lon="4.25504">
        <ele>494.551</ele>
        <time>2019-02-28T13:24:42Z</time>
      </trkpt>
      <trkpt lat="45.80607" lon="4.25492">
        <ele>494.412</ele>
        <time>2019-02-28T13:24:48Z</time>
      </trkpt>
      <trkpt lat="45.80609" lon="4.25482">
        <ele>494.808</ele>
        <time>2019-02-28T13:24:54Z</time>
      </trkpt>
      <trkpt lat="45.8061" lon="4.25472">
        <ele>494.856</ele>
        <time>2019-02-28T13:25:00Z</time>
      </trkpt>
      <trkpt lat="45.80608" lon="4.25464">
        <ele>494.959</ele>
        <time>2019-02-28T13:25:06Z</time>
      </trkpt>
      <trkpt lat="45.80608" lon="4.25452">
        <ele>494.745</ele>
        <time>2019-02-28T13:25:12Z</time>
      </trkpt>
      <trkpt lat="45.80606" lon="4.25441">
        <ele>494.973</ele>
        <time>2019-02-28T13:25:18Z</time>
      </trkpt>
      <trkpt lat="45.80604" lon="4.25429">
        <ele>495.097</ele>
        <time>2019-02-28T13:25:24Z</time>
      </trkpt>
      <trkpt lat="45.80603" lon="4.25421">
        <ele>494.833</ele>
        <time>2019-02-28T13:25:30Z</time>
      </trkpt>
      <trkpt lat="45.80602" lon="4.25415">
        <ele>494.782</ele>
        <time>2019-02-28T13:25:35Z</time>
      </trkpt>
      <trkpt lat="45.80602" lon="4.25405">
        <ele>494.99</ele>
        <time>2019-02-28T13:25:41Z</time>
      </trkpt>
      <trkpt lat="45.80599" lon="4.25393">
        <ele>495.123</ele>
        <time>2019-02-28T13:25:47Z</time>
      </trkpt>
      <trkpt lat="45.80598" lon="4.25383">
        <ele>495.379</ele>
        <time>2019-02-28T13:25:53Z</time>
      </trkpt>
      <trkpt lat="45.806" lon="4.25374">
        <ele>495.795</ele>
        <time>2019-02-28T13:25:59Z</time>
      </trkpt>
      <trkpt lat="45.80602" lon="4.25359">
        <ele>495.826</ele>
        <time>2019-02-28T13:26:05Z</time>
      </trkpt>
      <trkpt lat="45.80602" lon="4.25353">
        <ele>495.569</ele>
        <time>2019-02-28T13:26:11Z</time>
      </trkpt>
      <trkpt lat="45.80602" lon="4.25346">
        <ele>495.363</ele>
        <time>2019-02-28T13:26:17Z</time>
      </trkpt>
      <trkpt lat="45.80609" lon="4.25334">
        <ele>495.823</ele>
        <time>2019-02-28T13:26:23Z</time>
      </trkpt>
      <trkpt lat="45.80617" lon="4.25328">
        <ele>496.361</ele>
        <time>2019-02-28T13:26:29Z</time>
      </trkpt>
      <trkpt lat="45.80625" lon="4.25322">
        <ele>496.372</ele>
        <time>2019-02-28T13:26:35Z</time>
      </trkpt>
      <trkpt lat="45.80629" lon="4.2532">
        <ele>496.035</ele>
        <time>2019-02-28T13:26:40Z</time>
      </trkpt>
      <trkpt lat="45.80634" lon="4.25318">
        <ele>496.057</ele>
        <time>2019-02-28T13:26:46Z</time>
      </trkpt>
      <trkpt lat="45.80638" lon="4.25315">
        <ele>495.999</ele>
        <time>2019-02-28T13:26:51Z</time>
      </trkpt>
      <trkpt lat="45.80644" lon="4.25316">
        <ele>496.173</ele>
        <time>2019-02-28T13:26:57Z</time>
      </trkpt>
      <trkpt lat="45.80653" lon="4.25312">
        <ele>497.036</ele>
        <time>2019-02-28T13:27:03Z</time>
      </trkpt>
      <trkpt lat="45.80656" lon="4.25308">
        <ele>497.611</ele>
        <time>2019-02-28T13:27:08Z</time>
      </trkpt>
      <trkpt lat="45.80664" lon="4.25308">
        <ele>498.028</ele>
        <time>2019-02-28T13:27:13Z</time>
      </trkpt>
      <trkpt lat="45.8067" lon="4.25307">
        <ele>498.214</ele>
        <time>2019-02-28T13:27:19Z</time>
      </trkpt>
      <trkpt lat="45.80675" lon="4.25305">
        <ele>498.338</ele>
        <time>2019-02-28T13:27:25Z</time>
      </trkpt>
      <trkpt lat="45.80682" lon="4.253">
        <ele>498.786</ele>
        <time>2019-02-28T13:27:30Z</time>
      </trkpt>
      <trkpt lat="45.80683" lon="4.25299">
        <ele>499.129</ele>
        <time>2019-02-28T13:27:35Z</time>
      </trkpt>
      <trkpt lat="45.80684" lon="4.253">
        <ele>498.787</ele>
        <time>2019-02-28T13:27:41Z</time>
      </trkpt>
      <trkpt lat="45.80684" lon="4.25302">
        <ele>498.259</ele>
        <time>2019-02-28T13:27:46Z</time>
      </trkpt>
      <trkpt lat="45.80682" lon="4.25302">
        <ele>498.063</ele>
        <time>2019-02-28T13:27:52Z</time>
      </trkpt>
      <trkpt lat="45.80684" lon="4.25301">
        <ele>499.146</ele>
        <time>2019-02-28T13:27:57Z</time>
      </trkpt>
      <trkpt lat="45.80684" lon="4.253">
        <ele>499.576</ele>
        <time>2019-02-28T13:28:03Z</time>
      </trkpt>
      <trkpt lat="45.80683" lon="4.253">
        <ele>500.196</ele>
        <time>2019-02-28T13:28:09Z</time>
      </trkpt>
      <trkpt lat="45.80682" lon="4.25301">
        <ele>500.375</ele>
        <time>2019-02-28T13:28:14Z</time>
      </trkpt>
      <trkpt lat="45.80684" lon="4.25301">
        <ele>500.458</ele>
        <time>2019-02-28T13:28:20Z</time>
      </trkpt>
      <trkpt lat="45.80684" lon="4.25301">
        <ele>501.04</ele>
        <time>2019-02-28T13:28:26Z</time>
      </trkpt>
      <trkpt lat="45.80684" lon="4.25304">
        <ele>501.451</ele>
        <time>2019-02-28T13:28:31Z</time>
      </trkpt>
      <trkpt lat="45.80685" lon="4.25316">
        <ele>501.994</ele>
        <time>2019-02-28T13:28:37Z</time>
      </trkpt>
      <trkpt lat="45.80683" lon="4.25324">
        <ele>502.225</ele>
        <time>2019-02-28T13:28:42Z</time>
      </trkpt>
      <trkpt lat="45.80684" lon="4.25337">
        <ele>502.457</ele>
        <time>2019-02-28T13:28:48Z</time>
      </trkpt>
      <trkpt lat="45.80682" lon="4.25346">
        <ele>502.704</ele>
        <time>2019-02-28T13:28:54Z</time>
      </trkpt>
      <trkpt lat="45.8068" lon="4.25351">
        <ele>503.053</ele>
        <time>2019-02-28T13:28:59Z</time>
      </trkpt>
      <trkpt lat="45.80678" lon="4.25359">
        <ele>503.158</ele>
        <time>2019-02-28T13:29:04Z</time>
      </trkpt>
      <trkpt lat="45.80677" lon="4.25366">
        <ele>503.324</ele>
        <time>2019-02-28T13:29:09Z</time>
      </trkpt>
      <trkpt lat="45.80678" lon="4.25371">
        <ele>503.789</ele>
        <time>2019-02-28T13:29:15Z</time>
      </trkpt>
      <trkpt lat="45.80676" lon="4.2537">
        <ele>504.093</ele>
        <time>2019-02-28T13:29:21Z</time>
      </trkpt>
      <trkpt lat="45.80675" lon="4.25369">
        <ele>505.202</ele>
        <time>2019-02-28T13:29:27Z</time>
      </trkpt>
      <trkpt lat="45.80674" lon="4.25371">
        <ele>505.28</ele>
        <time>2019-02-28T13:29:32Z</time>
      </trkpt>
      <trkpt lat="45.8067" lon="4.2537">
        <ele>505.338</ele>
        <time>2019-02-28T13:29:37Z</time>
      </trkpt>
      <trkpt lat="45.80668" lon="4.25373">
        <ele>506.556</ele>
        <time>2019-02-28T13:29:43Z</time>
      </trkpt>
      <trkpt lat="45.80673" lon="4.2537">
        <ele>507.631</ele>
        <time>2019-02-28T13:29:49Z</time>
      </trkpt>
      <trkpt lat="45.80678" lon="4.25367">
        <ele>508.498</ele>
        <time>2019-02-28T13:29:54Z</time>
      </trkpt>
      <trkpt lat="45.80683" lon="4.25363">
        <ele>509.442</ele>
        <time>2019-02-28T13:29:59Z</time>
      </trkpt>
      <trkpt lat="45.80689" lon="4.25361">
        <ele>510.07</ele>
        <time>2019-02-28T13:30:05Z</time>
      </trkpt>
      <trkpt lat="45.80696" lon="4.25362">
        <ele>510.512</ele>
        <time>2019-02-28T13:30:11Z</time>
      </trkpt>
      <trkpt lat="45.80703" lon="4.25356">
        <ele>511.173</ele>
        <time>2019-02-28T13:30:17Z</time>
      </trkpt>
      <trkpt lat="45.80709" lon="4.25353">
        <ele>512.304</ele>
        <time>2019-02-28T13:30:23Z</time>
      </trkpt>
      <trkpt lat="45.80713" lon="4.25349">
        <ele>513.235</ele>
        <time>2019-02-28T13:30:29Z</time>
      </trkpt>
      <trkpt lat="45.80715" lon="4.25347">
        <ele>513.493</ele>
        <time>2019-02-28T13:30:35Z</time>
      </trkpt>
      <trkpt lat="45.80714" lon="4.25347">
        <ele>514.008</ele>
        <time>2019-02-28T13:30:40Z</time>
      </trkpt>
      <trkpt lat="45.80714" lon="4.2535">
        <ele>514.423</ele>
        <time>2019-02-28T13:30:46Z</time>
      </trkpt>
      <trkpt lat="45.8072" lon="4.25347">
        <ele>514.669</ele>
        <time>2019-02-28T13:30:52Z</time>
      </trkpt>
      <trkpt lat="45.80725" lon="4.25344">
        <ele>514.694</ele>
        <time>2019-02-28T13:30:58Z</time>
      </trkpt>
      <trkpt lat="45.8073" lon="4.25342">
        <ele>515.495</ele>
        <time>2019-02-28T13:31:04Z</time>
      </trkpt>
      <trkpt lat="45.80735" lon="4.2534">
        <ele>516.125</ele>
        <time>2019-02-28T13:31:09Z</time>
      </trkpt>
      <trkpt lat="45.8074" lon="4.2534">
        <ele>516.67</ele>
        <time>2019-02-28T13:31:15Z</time>
      </trkpt>
      <trkpt lat="45.80747" lon="4.2534">
        <ele>517.072</ele>
        <time>2019-02-28T13:31:21Z</time>
      </trkpt>
      <trkpt lat="45.80753" lon="4.25339">
        <ele>517.483</ele>
        <time>2019-02-28T13:31:26Z</time>
      </trkpt>
      <trkpt lat="45.80758" lon="4.25339">
        <ele>517.754</ele>
        <time>2019-02-28T13:31:31Z</time>
      </trkpt>
      <trkpt lat="45.80762" lon="4.25341">
        <ele>518.009</ele>
        <time>2019-02-28T13:31:37Z</time>
      </trkpt>
      <trkpt lat="45.80766" lon="4.25342">
        <ele>517.914</ele>
        <time>2019-02-28T13:31:42Z</time>
      </trkpt>
      <trkpt lat="45.80771" lon="4.25344">
        <ele>517.915</ele>
        <time>2019-02-28T13:31:48Z</time>
      </trkpt>
      <trkpt lat="45.80777" lon="4.25345">
        <ele>518.372</ele>
        <time>2019-02-28T13:31:54Z</time>
      </trkpt>
      <trkpt lat="45.80779" lon="4.25346">
        <ele>519.25</ele>
        <time>2019-02-28T13:32:00Z</time>
      </trkpt>
      <trkpt lat="45.80783" lon="4.25347">
        <ele>520.314</ele>
        <time>2019-02-28T13:32:06Z</time>
      </trkpt>
      <trkpt lat="45.80787" lon="4.25352">
        <ele>521.42</ele>
        <time>2019-02-28T13:32:12Z</time>
      </trkpt>
      <trkpt lat="45.80789" lon="4.25361">
        <ele>522.412</ele>
        <time>2019-02-28T13:32:17Z</time>
      </trkpt>
      <trkpt lat="45.80793" lon="4.25371">
        <ele>523.458</ele>
        <time>2019-02-28T13:32:22Z</time>
      </trkpt>
      <trkpt lat="45.80799" lon="4.25377">
        <ele>524.783</ele>
        <time>2019-02-28T13:32:28Z</time>
      </trkpt>
      <trkpt lat="45.80804" lon="4.25386">
        <ele>525.539</ele>
        <time>2019-02-28T13:32:33Z</time>
      </trkpt>
      <trkpt lat="45.80808" lon="4.25392">
        <ele>526.947</ele>
        <time>2019-02-28T13:32:39Z</time>
      </trkpt>
      <trkpt lat="45.80808" lon="4.25399">
        <ele>527.63</ele>
        <time>2019-02-28T13:32:44Z</time>
      </trkpt>
      <trkpt lat="45.80812" lon="4.25407">
        <ele>528.593</ele>
        <time>2019-02-28T13:32:50Z</time>
      </trkpt>
      <trkpt lat="45.80819" lon="4.25412">
        <ele>529.708</ele>
        <time>2019-02-28T13:32:56Z</time>
      </trkpt>
      <trkpt lat="45.80824" lon="4.25412">
        <ele>530.508</ele>
        <time>2019-02-28T13:33:02Z</time>
      </trkpt>
      <trkpt lat="45.80828" lon="4.25412">
        <ele>531.221</ele>
        <time>2019-02-28T13:33:07Z</time>
      </trkpt>
      <trkpt lat="45.80835" lon="4.25407">
        <ele>532.128</ele>
        <time>2019-02-28T13:33:13Z</time>
      </trkpt>
      <trkpt lat="45.8084" lon="4.25404">
        <ele>532.99</ele>
        <time>2019-02-28T13:33:18Z</time>
      </trkpt>
      <trkpt lat="45.80847" lon="4.25399">
        <ele>534.201</ele>
        <time>2019-02-28T13:33:24Z</time>
      </trkpt>
      <trkpt lat="45.80853" lon="4.25397">
        <ele>535.123</ele>
        <time>2019-02-28T13:33:30Z</time>
      </trkpt>
      <trkpt lat="45.80858" lon="4.25396">
        <ele>535.895</ele>
        <time>2019-02-28T13:33:36Z</time>
      </trkpt>
      <trkpt lat="45.80866" lon="4.25395">
        <ele>537.033</ele>
        <time>2019-02-28T13:33:42Z</time>
      </trkpt>
      <trkpt lat="45.80874" lon="4.25394">
        <ele>538.168</ele>
        <time>2019-02-28T13:33:47Z</time>
      </trkpt>
      <trkpt lat="45.80881" lon="4.25396">
        <ele>538.754</ele>
        <time>2019-02-28T13:33:52Z</time>
      </trkpt>
      <trkpt lat="45.8089" lon="4.25399">
        <ele>538.452</ele>
        <time>2019-02-28T13:33:58Z</time>
      </trkpt>
      <trkpt lat="45.80895" lon="4.25399">
        <ele>538.235</ele>
        <time>2019-02-28T13:34:03Z</time>
      </trkpt>
      <trkpt lat="45.80903" lon="4.25396">
        <ele>538.421</ele>
        <time>2019-02-28T13:34:09Z</time>
      </trkpt>
      <trkpt lat="45.80908" lon="4.25391">
        <ele>538.698</ele>
        <time>2019-02-28T13:34:14Z</time>
      </trkpt>
      <trkpt lat="45.80914" lon="4.25388">
        <ele>538.979</ele>
        <time>2019-02-28T13:34:20Z</time>
      </trkpt>
      <trkpt lat="45.80921" lon="4.25385">
        <ele>539.635</ele>
        <time>2019-02-28T13:34:26Z</time>
      </trkpt>
      <trkpt lat="45.80928" lon="4.25381">
        <ele>540.091</ele>
        <time>2019-02-28T13:34:31Z</time>
      </trkpt>
      <trkpt lat="45.80935" lon="4.2538">
        <ele>540.639</ele>
        <time>2019-02-28T13:34:37Z</time>
      </trkpt>
      <trkpt lat="45.80937" lon="4.2538">
        <ele>541.57</ele>
        <time>2019-02-28T13:34:43Z</time>
      </trkpt>
      <trkpt lat="45.80937" lon="4.25381">
        <ele>541.848</ele>
        <time>2019-02-28T13:34:49Z</time>
      </trkpt>
      <trkpt lat="45.80937" lon="4.25381">
        <ele>541.696</ele>
        <time>2019-02-28T13:34:54Z</time>
      </trkpt>
      <trkpt lat="45.80937" lon="4.25382">
        <ele>541.313</ele>
        <time>2019-02-28T13:35:00Z</time>
      </trkpt>
      <trkpt lat="45.80936" lon="4.25382">
        <ele>541.297</ele>
        <time>2019-02-28T13:35:06Z</time>
      </trkpt>
      <trkpt lat="45.80932" lon="4.25384">
        <ele>541.15</ele>
        <time>2019-02-28T13:35:11Z</time>
      </trkpt>
      <trkpt lat="45.80929" lon="4.25385">
        <ele>541.024</ele>
        <time>2019-02-28T13:35:17Z</time>
      </trkpt>
      <trkpt lat="45.80931" lon="4.25387">
        <ele>541.016</ele>
        <time>2019-02-28T13:35:23Z</time>
      </trkpt>
      <trkpt lat="45.80934" lon="4.25386">
        <ele>541.042</ele>
        <time>2019-02-28T13:35:29Z</time>
      </trkpt>
      <trkpt lat="45.80936" lon="4.25386">
        <ele>541.107</ele>
        <time>2019-02-28T13:35:35Z</time>
      </trkpt>
      <trkpt lat="45.80935" lon="4.25384">
        <ele>541.195</ele>
        <time>2019-02-28T13:35:41Z</time>
      </trkpt>
      <trkpt lat="45.80937" lon="4.25383">
        <ele>541.224</ele>
        <time>2019-02-28T13:35:46Z</time>
      </trkpt>
      <trkpt lat="45.80937" lon="4.25383">
        <ele>541.379</ele>
        <time>2019-02-28T13:35:52Z</time>
      </trkpt>
      <trkpt lat="45.8094" lon="4.25384">
        <ele>542.084</ele>
        <time>2019-02-28T13:35:57Z</time>
      </trkpt>
      <trkpt lat="45.80946" lon="4.25384">
        <ele>542.654</ele>
        <time>2019-02-28T13:36:03Z</time>
      </trkpt>
      <trkpt lat="45.80951" lon="4.25387">
        <ele>543.169</ele>
        <time>2019-02-28T13:36:08Z</time>
      </trkpt>
      <trkpt lat="45.80961" lon="4.25386">
        <ele>544.093</ele>
        <time>2019-02-28T13:36:14Z</time>
      </trkpt>
      <trkpt lat="45.80968" lon="4.25385">
        <ele>545.035</ele>
        <time>2019-02-28T13:36:20Z</time>
      </trkpt>
      <trkpt lat="45.80972" lon="4.25384">
        <ele>545.705</ele>
        <time>2019-02-28T13:36:26Z</time>
      </trkpt>
      <trkpt lat="45.80973" lon="4.25381">
        <ele>546.714</ele>
        <time>2019-02-28T13:36:31Z</time>
      </trkpt>
      <trkpt lat="45.80977" lon="4.25385">
        <ele>547.147</ele>
        <time>2019-02-28T13:36:37Z</time>
      </trkpt>
      <trkpt lat="45.80976" lon="4.25383">
        <ele>547.733</ele>
        <time>2019-02-28T13:36:43Z</time>
      </trkpt>
      <trkpt lat="45.80976" lon="4.25381">
        <ele>548.514</ele>
        <time>2019-02-28T13:36:49Z</time>
      </trkpt>
      <trkpt lat="45.80977" lon="4.2538">
        <ele>548.435</ele>
        <time>2019-02-28T13:36:54Z</time>
      </trkpt>
      <trkpt lat="45.80979" lon="4.25378">
        <ele>548.263</ele>
        <time>2019-02-28T13:36:59Z</time>
      </trkpt>
      <trkpt lat="45.80982" lon="4.2538">
        <ele>547.917</ele>
        <time>2019-02-28T13:37:05Z</time>
      </trkpt>
      <trkpt lat="45.80989" lon="4.25383">
        <ele>547.522</ele>
        <time>2019-02-28T13:37:10Z</time>
      </trkpt>
      <trkpt lat="45.80993" lon="4.2539">
        <ele>547.315</ele>
        <time>2019-02-28T13:37:15Z</time>
      </trkpt>
      <trkpt lat="45.80998" lon="4.25401">
        <ele>546.882</ele>
        <time>2019-02-28T13:37:21Z</time>
      </trkpt>
      <trkpt lat="45.81003" lon="4.25406">
        <ele>546.594</ele>
        <time>2019-02-28T13:37:27Z</time>
      </trkpt>
      <trkpt lat="45.81007" lon="4.25407">
        <ele>545.695</ele>
        <time>2019-02-28T13:37:33Z</time>
      </trkpt>
      <trkpt lat="45.81012" lon="4.25407">
        <ele>544.967</ele>
        <time>2019-02-28T13:37:38Z</time>
      </trkpt>
      <trkpt lat="45.81019" lon="4.25406">
        <ele>544.907</ele>
        <time>2019-02-28T13:37:43Z</time>
      </trkpt>
      <trkpt lat="45.81027" lon="4.25402">
        <ele>545.826</ele>
        <time>2019-02-28T13:37:49Z</time>
      </trkpt>
      <trkpt lat="45.81033" lon="4.25398">
        <ele>546.707</ele>
        <time>2019-02-28T13:37:54Z</time>
      </trkpt>
      <trkpt lat="45.81041" lon="4.25395">
        <ele>547.368</ele>
        <time>2019-02-28T13:38:00Z</time>
      </trkpt>
      <trkpt lat="45.81048" lon="4.25393">
        <ele>548.078</ele>
        <time>2019-02-28T13:38:06Z</time>
      </trkpt>
      <trkpt lat="45.81054" lon="4.25392">
        <ele>548.845</ele>
        <time>2019-02-28T13:38:12Z</time>
      </trkpt>
      <trkpt lat="45.81064" lon="4.25388">
        <ele>549.596</ele>
        <time>2019-02-28T13:38:18Z</time>
      </trkpt>
      <trkpt lat="45.81069" lon="4.25385">
        <ele>550.215</ele>
        <time>2019-02-28T13:38:23Z</time>
      </trkpt>
      <trkpt lat="45.8107" lon="4.25384">
        <ele>550.555</ele>
        <time>2019-02-28T13:38:28Z</time>
      </trkpt>
      <trkpt lat="45.81076" lon="4.25385">
        <ele>550.954</ele>
        <time>2019-02-28T13:38:34Z</time>
      </trkpt>
      <trkpt lat="45.81079" lon="4.25387">
        <ele>551.029</ele>
        <time>2019-02-28T13:38:39Z</time>
      </trkpt>
      <trkpt lat="45.81081" lon="4.25386">
        <ele>551.372</ele>
        <time>2019-02-28T13:38:45Z</time>
      </trkpt>
      <trkpt lat="45.81084" lon="4.25389">
        <ele>551.364</ele>
        <time>2019-02-28T13:38:50Z</time>
      </trkpt>
      <trkpt lat="45.81088" lon="4.25398">
        <ele>551.008</ele>
        <time>2019-02-28T13:38:56Z</time>
      </trkpt>
      <trkpt lat="45.81093" lon="4.25406">
        <ele>550.563</ele>
        <time>2019-02-28T13:39:01Z</time>
      </trkpt>
      <trkpt lat="45.81099" lon="4.2541">
        <ele>550.531</ele>
        <time>2019-02-28T13:39:06Z</time>
      </trkpt>
      <trkpt lat="45.81106" lon="4.25419">
        <ele>550.307</ele>
        <time>2019-02-28T13:39:12Z</time>
      </trkpt>
      <trkpt lat="45.81112" lon="4.25428">
        <ele>550.42</ele>
        <time>2019-02-28T13:39:18Z</time>
      </trkpt>
      <trkpt lat="45.81116" lon="4.25436">
        <ele>550.639</ele>
        <time>2019-02-28T13:39:23Z</time>
      </trkpt>
      <trkpt lat="45.81121" lon="4.25447">
        <ele>550.384</ele>
        <time>2019-02-28T13:39:29Z</time>
      </trkpt>
      <trkpt lat="45.81126" lon="4.25451">
        <ele>549.443</ele>
        <time>2019-02-28T13:39:34Z</time>
      </trkpt>
      <trkpt lat="45.81132" lon="4.25457">
        <ele>548.764</ele>
        <time>2019-02-28T13:39:40Z</time>
      </trkpt>
      <trkpt lat="45.81138" lon="4.25464">
        <ele>548.324</ele>
        <time>2019-02-28T13:39:46Z</time>
      </trkpt>
      <trkpt lat="45.81145" lon="4.25473">
        <ele>547.46</ele>
        <time>2019-02-28T13:39:51Z</time>
      </trkpt>
      <trkpt lat="45.8115" lon="4.25484">
        <ele>546.612</ele>
        <time>2019-02-28T13:39:57Z</time>
      </trkpt>
      <trkpt lat="45.81154" lon="4.25493">
        <ele>546.397</ele>
        <time>2019-02-28T13:40:02Z</time>
      </trkpt>
      <trkpt lat="45.81158" lon="4.25506">
        <ele>546.75</ele>
        <time>2019-02-28T13:40:08Z</time>
      </trkpt>
      <trkpt lat="45.8116" lon="4.25514">
        <ele>546.792</ele>
        <time>2019-02-28T13:40:14Z</time>
      </trkpt>
      <trkpt lat="45.81165" lon="4.25518">
        <ele>546.905</ele>
        <time>2019-02-28T13:40:19Z</time>
      </trkpt>
      <trkpt lat="45.81172" lon="4.25516">
        <ele>547.264</ele>
        <time>2019-02-28T13:40:25Z</time>
      </trkpt>
      <trkpt lat="45.81178" lon="4.2552">
        <ele>547.252</ele>
        <time>2019-02-28T13:40:31Z</time>
      </trkpt>
      <trkpt lat="45.81186" lon="4.25526">
        <ele>547.346</ele>
        <time>2019-02-28T13:40:37Z</time>
      </trkpt>
      <trkpt lat="45.81194" lon="4.25534">
        <ele>547.682</ele>
        <time>2019-02-28T13:40:42Z</time>
      </trkpt>
      <trkpt lat="45.81199" lon="4.25542">
        <ele>548.178</ele>
        <time>2019-02-28T13:40:48Z</time>
      </trkpt>
      <trkpt lat="45.81205" lon="4.25554">
        <ele>548.342</ele>
        <time>2019-02-28T13:40:54Z</time>
      </trkpt>
      <trkpt lat="45.81212" lon="4.25561">
        <ele>548.582</ele>
        <time>2019-02-28T13:41:00Z</time>
      </trkpt>
      <trkpt lat="45.81218" lon="4.25566">
        <ele>548.489</ele>
        <time>2019-02-28T13:41:05Z</time>
      </trkpt>
      <trkpt lat="45.81226" lon="4.25574">
        <ele>548.431</ele>
        <time>2019-02-28T13:41:10Z</time>
      </trkpt>
      <trkpt lat="45.81232" lon="4.25583">
        <ele>548.628</ele>
        <time>2019-02-28T13:41:16Z</time>
      </trkpt>
      <trkpt lat="45.81239" lon="4.25592">
        <ele>548.729</ele>
        <time>2019-02-28T13:41:22Z</time>
      </trkpt>
      <trkpt lat="45.81245" lon="4.25601">
        <ele>548.895</ele>
        <time>2019-02-28T13:41:28Z</time>
      </trkpt>
      <trkpt lat="45.81254" lon="4.25611">
        <ele>548.756</ele>
        <time>2019-02-28T13:41:34Z</time>
      </trkpt>
      <trkpt lat="45.81259" lon="4.25618">
        <ele>548.698</ele>
        <time>2019-02-28T13:41:40Z</time>
      </trkpt>
      <trkpt lat="45.81268" lon="4.25626">
        <ele>548.316</ele>
        <time>2019-02-28T13:41:46Z</time>
      </trkpt>
      <trkpt lat="45.81273" lon="4.25633">
        <ele>547.575</ele>
        <time>2019-02-28T13:41:52Z</time>
      </trkpt>
      <trkpt lat="45.81283" lon="4.25634">
        <ele>546.815</ele>
        <time>2019-02-28T13:41:58Z</time>
      </trkpt>
      <trkpt lat="45.81291" lon="4.25642">
        <ele>546.756</ele>
        <time>2019-02-28T13:42:03Z</time>
      </trkpt>
      <trkpt lat="45.81297" lon="4.25648">
        <ele>546.603</ele>
        <time>2019-02-28T13:42:09Z</time>
      </trkpt>
      <trkpt lat="45.81307" lon="4.25656">
        <ele>546.64</ele>
        <time>2019-02-28T13:42:14Z</time>
      </trkpt>
      <trkpt lat="45.81314" lon="4.25666">
        <ele>546.659</ele>
        <time>2019-02-28T13:42:20Z</time>
      </trkpt>
      <trkpt lat="45.8132" lon="4.25675">
        <ele>546.691</ele>
        <time>2019-02-28T13:42:26Z</time>
      </trkpt>
      <trkpt lat="45.81325" lon="4.25684">
        <ele>546.334</ele>
        <time>2019-02-28T13:42:31Z</time>
      </trkpt>
      <trkpt lat="45.8133" lon="4.25694">
        <ele>545.914</ele>
        <time>2019-02-28T13:42:37Z</time>
      </trkpt>
      <trkpt lat="45.81335" lon="4.25705">
        <ele>545.265</ele>
        <time>2019-02-28T13:42:43Z</time>
      </trkpt>
      <trkpt lat="45.8134" lon="4.25714">
        <ele>544.463</ele>
        <time>2019-02-28T13:42:49Z</time>
      </trkpt>
      <trkpt lat="45.81341" lon="4.25716">
        <ele>543.812</ele>
        <time>2019-02-28T13:42:54Z</time>
      </trkpt>
      <trkpt lat="45.81339" lon="4.25716">
        <ele>543.353</ele>
        <time>2019-02-28T13:42:59Z</time>
      </trkpt>
      <trkpt lat="45.8134" lon="4.25716">
        <ele>543.265</ele>
        <time>2019-02-28T13:43:05Z</time>
      </trkpt>
      <trkpt lat="45.81341" lon="4.25715">
        <ele>543.624</ele>
        <time>2019-02-28T13:43:10Z</time>
      </trkpt>
      <trkpt lat="45.8134" lon="4.25718">
        <ele>544.028</ele>
        <time>2019-02-28T13:43:16Z</time>
      </trkpt>
      <trkpt lat="45.8134" lon="4.25725">
        <ele>543.685</ele>
        <time>2019-02-28T13:43:21Z</time>
      </trkpt>
      <trkpt lat="45.81339" lon="4.25732">
        <ele>543.351</ele>
        <time>2019-02-28T13:43:27Z</time>
      </trkpt>
      <trkpt lat="45.81338" lon="4.25742">
        <ele>543.272</ele>
        <time>2019-02-28T13:43:33Z</time>
      </trkpt>
      <trkpt lat="45.81337" lon="4.25742">
        <ele>543.237</ele>
        <time>2019-02-28T13:43:38Z</time>
      </trkpt>
      <trkpt lat="45.81336" lon="4.25742">
        <ele>543.168</ele>
        <time>2019-02-28T13:43:44Z</time>
      </trkpt>
      <trkpt lat="45.81335" lon="4.25741">
        <ele>543.101</ele>
        <time>2019-02-28T13:43:50Z</time>
      </trkpt>
      <trkpt lat="45.81335" lon="4.25742">
        <ele>542.774</ele>
        <time>2019-02-28T13:43:55Z</time>
      </trkpt>
      <trkpt lat="45.81336" lon="4.25748">
        <ele>542.435</ele>
        <time>2019-02-28T13:44:00Z</time>
      </trkpt>
      <trkpt lat="45.81337" lon="4.25759">
        <ele>541.866</ele>
        <time>2019-02-28T13:44:06Z</time>
      </trkpt>
      <trkpt lat="45.81335" lon="4.25767">
        <ele>541.391</ele>
        <time>2019-02-28T13:44:11Z</time>
      </trkpt>
      <trkpt lat="45.81332" lon="4.25777">
        <ele>540.506</ele>
        <time>2019-02-28T13:44:17Z</time>
      </trkpt>
      <trkpt lat="45.81326" lon="4.25786">
        <ele>540.03</ele>
        <time>2019-02-28T13:44:22Z</time>
      </trkpt>
      <trkpt lat="45.81321" lon="4.25794">
        <ele>539.601</ele>
        <time>2019-02-28T13:44:27Z</time>
      </trkpt>
      <trkpt lat="45.81315" lon="4.258">
        <ele>538.568</ele>
        <time>2019-02-28T13:44:33Z</time>
      </trkpt>
      <trkpt lat="45.81309" lon="4.25808">
        <ele>537.84</ele>
        <time>2019-02-28T13:44:39Z</time>
      </trkpt>
      <trkpt lat="45.81303" lon="4.25813">
        <ele>537.431</ele>
        <time>2019-02-28T13:44:44Z</time>
      </trkpt>
      <trkpt lat="45.81295" lon="4.25819">
        <ele>537.278</ele>
        <time>2019-02-28T13:44:49Z</time>
      </trkpt>
      <trkpt lat="45.81286" lon="4.25827">
        <ele>537.05</ele>
        <time>2019-02-28T13:44:55Z</time>
      </trkpt>
      <trkpt lat="45.8128" lon="4.25835">
        <ele>536.552</ele>
        <time>2019-02-28T13:45:00Z</time>
      </trkpt>
      <trkpt lat="45.81274" lon="4.25841">
        <ele>535.9</ele>
        <time>2019-02-28T13:45:06Z</time>
      </trkpt>
      <trkpt lat="45.81269" lon="4.25847">
        <ele>534.953</ele>
        <time>2019-02-28T13:45:11Z</time>
      </trkpt>
      <trkpt lat="45.81263" lon="4.25857">
        <ele>534.337</ele>
        <time>2019-02-28T13:45:17Z</time>
      </trkpt>
      <trkpt lat="45.81258" lon="4.25867">
        <ele>534.043</ele>
        <time>2019-02-28T13:45:22Z</time>
      </trkpt>
      <trkpt lat="45.81251" lon="4.25877">
        <ele>533.432</ele>
        <time>2019-02-28T13:45:27Z</time>
      </trkpt>
      <trkpt lat="45.81244" lon="4.25888">
        <ele>532.793</ele>
        <time>2019-02-28T13:45:33Z</time>
      </trkpt>
      <trkpt lat="45.81239" lon="4.25896">
        <ele>532.277</ele>
        <time>2019-02-28T13:45:38Z</time>
      </trkpt>
      <trkpt lat="45.81233" lon="4.25905">
        <ele>531.504</ele>
        <time>2019-02-28T13:45:44Z</time>
      </trkpt>
      <trkpt lat="45.81226" lon="4.25916">
        <ele>531.154</ele>
        <time>2019-02-28T13:45:50Z</time>
      </trkpt>
      <trkpt lat="45.81221" lon="4.25924">
        <ele>531.002</ele>
        <time>2019-02-28T13:45:56Z</time>
      </trkpt>
      <trkpt lat="45.81217" lon="4.25931">
        <ele>530.656</ele>
        <time>2019-02-28T13:46:02Z</time>
      </trkpt>
      <trkpt lat="45.81214" lon="4.25931">
        <ele>530.297</ele>
        <time>2019-02-28T13:46:07Z</time>
      </trkpt>
      <trkpt lat="45.81216" lon="4.2593">
        <ele>529.601</ele>
        <time>2019-02-28T13:46:12Z</time>
      </trkpt>
      <trkpt lat="45.81212" lon="4.25932">
        <ele>529.404</ele>
        <time>2019-02-28T13:46:18Z</time>
      </trkpt>
      <trkpt lat="45.81212" lon="4.25934">
        <ele>529.061</ele>
        <time>2019-02-28T13:46:24Z</time>
      </trkpt>
      <trkpt lat="45.81212" lon="4.25934">
        <ele>528.672</ele>
        <time>2019-02-28T13:46:30Z</time>
      </trkpt>
      <trkpt lat="45.81208" lon="4.25941">
        <ele>527.982</ele>
        <time>2019-02-28T13:46:36Z</time>
      </trkpt>
      <trkpt lat="45.81206" lon="4.25948">
        <ele>527.573</ele>
        <time>2019-02-28T13:46:41Z</time>
      </trkpt>
      <trkpt lat="45.81207" lon="4.25952">
        <ele>526.749</ele>
        <time>2019-02-28T13:46:47Z</time>
      </trkpt>
      <trkpt lat="45.81207" lon="4.25961">
        <ele>525.827</ele>
        <time>2019-02-28T13:46:53Z</time>
      </trkpt>
      <trkpt lat="45.81205" lon="4.25973">
        <ele>524.783</ele>
        <time>2019-02-28T13:46:58Z</time>
      </trkpt>
      <trkpt lat="45.81202" lon="4.25981">
        <ele>523.6</ele>
        <time>2019-02-28T13:47:04Z</time>
      </trkpt>
      <trkpt lat="45.81198" lon="4.25992">
        <ele>522.488</ele>
        <time>2019-02-28T13:47:10Z</time>
      </trkpt>
      <trkpt lat="45.81196" lon="4.25999">
        <ele>521.611</ele>
        <time>2019-02-28T13:47:16Z</time>
      </trkpt>
      <trkpt lat="45.81195" lon="4.26006">
        <ele>521.474</ele>
        <time>2019-02-28T13:47:21Z</time>
      </trkpt>
      <trkpt lat="45.81193" lon="4.26018">
        <ele>520.978</ele>
        <time>2019-02-28T13:47:27Z</time>
      </trkpt>
      <trkpt lat="45.81191" lon="4.26026">
        <ele>520.179</ele>
        <time>2019-02-28T13:47:32Z</time>
      </trkpt>
      <trkpt lat="45.81189" lon="4.26034">
        <ele>518.797</ele>
        <time>2019-02-28T13:47:38Z</time>
      </trkpt>
      <trkpt lat="45.8119" lon="4.26042">
        <ele>517.49</ele>
        <time>2019-02-28T13:47:44Z</time>
      </trkpt>
      <trkpt lat="45.81194" lon="4.2605">
        <ele>515.699</ele>
        <time>2019-02-28T13:47:50Z</time>
      </trkpt>
      <trkpt lat="45.81198" lon="4.26058">
        <ele>513.798</ele>
        <time>2019-02-28T13:47:56Z</time>
      </trkpt>
      <trkpt lat="45.81207" lon="4.26066">
        <ele>511.734</ele>
        <time>2019-02-28T13:48:02Z</time>
      </trkpt>
      <trkpt lat="45.81211" lon="4.26073">
        <ele>509.82</ele>
        <time>2019-02-28T13:48:07Z</time>
      </trkpt>
      <trkpt lat="45.81215" lon="4.26079">
        <ele>508.06</ele>
        <time>2019-02-28T13:48:13Z</time>
      </trkpt>
      <trkpt lat="45.81217" lon="4.26083">
        <ele>507.098</ele>
        <time>2019-02-28T13:48:19Z</time>
      </trkpt>
      <trkpt lat="45.8122" lon="4.26092">
        <ele>507</ele>
        <time>2019-02-28T13:48:24Z</time>
      </trkpt>
      <trkpt lat="45.81226" lon="4.261">
        <ele>506.738</ele>
        <time>2019-02-28T13:48:30Z</time>
      </trkpt>
      <trkpt lat="45.81227" lon="4.26115">
        <ele>506.633</ele>
        <time>2019-02-28T13:48:36Z</time>
      </trkpt>
      <trkpt lat="45.8123" lon="4.26127">
        <ele>505.986</ele>
        <time>2019-02-28T13:48:41Z</time>
      </trkpt>
      <trkpt lat="45.81234" lon="4.26137">
        <ele>505.479</ele>
        <time>2019-02-28T13:48:47Z</time>
      </trkpt>
      <trkpt lat="45.81237" lon="4.26149">
        <ele>505.086</ele>
        <time>2019-02-28T13:48:53Z</time>
      </trkpt>
      <trkpt lat="45.8124" lon="4.26163">
        <ele>504.662</ele>
        <time>2019-02-28T13:48:59Z</time>
      </trkpt>
      <trkpt lat="45.81244" lon="4.26172">
        <ele>504.622</ele>
        <time>2019-02-28T13:49:05Z</time>
      </trkpt>
      <trkpt lat="45.81245" lon="4.26179">
        <ele>504.812</ele>
        <time>2019-02-28T13:49:10Z</time>
      </trkpt>
      <trkpt lat="45.81248" lon="4.26188">
        <ele>504.727</ele>
        <time>2019-02-28T13:49:16Z</time>
      </trkpt>
      <trkpt lat="45.8125" lon="4.26191">
        <ele>504.648</ele>
        <time>2019-02-28T13:49:22Z</time>
      </trkpt>
      <trkpt lat="45.8125" lon="4.26192">
        <ele>504.606</ele>
        <time>2019-02-28T13:49:28Z</time>
      </trkpt>
      <trkpt lat="45.81252" lon="4.26195">
        <ele>504.693</ele>
        <time>2019-02-28T13:49:33Z</time>
      </trkpt>
      <trkpt lat="45.81253" lon="4.262">
        <ele>505.042</ele>
        <time>2019-02-28T13:49:39Z</time>
      </trkpt>
      <trkpt lat="45.81252" lon="4.26198">
        <ele>505.582</ele>
        <time>2019-02-28T13:49:45Z</time>
      </trkpt>
      <trkpt lat="45.81249" lon="4.26198">
        <ele>505.696</ele>
        <time>2019-02-28T13:49:51Z</time>
      </trkpt>
      <trkpt lat="45.81248" lon="4.26197">
        <ele>505.815</ele>
        <time>2019-02-28T13:49:57Z</time>
      </trkpt>
      <trkpt lat="45.81248" lon="4.26195">
        <ele>505.437</ele>
        <time>2019-02-28T13:50:03Z</time>
      </trkpt>
      <trkpt lat="45.81248" lon="4.26195">
        <ele>504.89</ele>
        <time>2019-02-28T13:50:09Z</time>
      </trkpt>
      <trkpt lat="45.81249" lon="4.26196">
        <ele>504.634</ele>
        <time>2019-02-28T13:50:15Z</time>
      </trkpt>
      <trkpt lat="45.8125" lon="4.26196">
        <ele>505.051</ele>
        <time>2019-02-28T13:50:20Z</time>
      </trkpt>
      <trkpt lat="45.81251" lon="4.26197">
        <ele>505.46</ele>
        <time>2019-02-28T13:50:25Z</time>
      </trkpt>
      <trkpt lat="45.81251" lon="4.26201">
        <ele>505.426</ele>
        <time>2019-02-28T13:50:31Z</time>
      </trkpt>
      <trkpt lat="45.81249" lon="4.26207">
        <ele>505.796</ele>
        <time>2019-02-28T13:50:37Z</time>
      </trkpt>
      <trkpt lat="45.81246" lon="4.26212">
        <ele>505.859</ele>
        <time>2019-02-28T13:50:42Z</time>
      </trkpt>
      <trkpt lat="45.81241" lon="4.26221">
        <ele>506.06</ele>
        <time>2019-02-28T13:50:48Z</time>
      </trkpt>
      <trkpt lat="45.81238" lon="4.26228">
        <ele>506.673</ele>
        <time>2019-02-28T13:50:54Z</time>
      </trkpt>
      <trkpt lat="45.81236" lon="4.26237">
        <ele>507.048</ele>
        <time>2019-02-28T13:50:59Z</time>
      </trkpt>
      <trkpt lat="45.81232" lon="4.26243">
        <ele>507.527</ele>
        <time>2019-02-28T13:51:05Z</time>
      </trkpt>
      <trkpt lat="45.81228" lon="4.2625">
        <ele>508.213</ele>
        <time>2019-02-28T13:51:11Z</time>
      </trkpt>
      <trkpt lat="45.81223" lon="4.26254">
        <ele>508.651</ele>
        <time>2019-02-28T13:51:16Z</time>
      </trkpt>
      <trkpt lat="45.81217" lon="4.26258">
        <ele>508.925</ele>
        <time>2019-02-28T13:51:22Z</time>
      </trkpt>
      <trkpt lat="45.81211" lon="4.26264">
        <ele>509.39</ele>
        <time>2019-02-28T13:51:28Z</time>
      </trkpt>
      <trkpt lat="45.81206" lon="4.26268">
        <ele>510.209</ele>
        <time>2019-02-28T13:51:34Z</time>
      </trkpt>
      <trkpt lat="45.81199" lon="4.26273">
        <ele>511.164</ele>
        <time>2019-02-28T13:51:40Z</time>
      </trkpt>
      <trkpt lat="45.81191" lon="4.26279">
        <ele>511.896</ele>
        <time>2019-02-28T13:51:46Z</time>
      </trkpt>
      <trkpt lat="45.81183" lon="4.26285">
        <ele>512.267</ele>
        <time>2019-02-28T13:51:52Z</time>
      </trkpt>
      <trkpt lat="45.81178" lon="4.26288">
        <ele>513.172</ele>
        <time>2019-02-28T13:51:58Z</time>
      </trkpt>
      <trkpt lat="45.81173" lon="4.26288">
        <ele>513.909</ele>
        <time>2019-02-28T13:52:03Z</time>
      </trkpt>
      <trkpt lat="45.81165" lon="4.26291">
        <ele>514.587</ele>
        <time>2019-02-28T13:52:09Z</time>
      </trkpt>
      <trkpt lat="45.81159" lon="4.26296">
        <ele>515.327</ele>
        <time>2019-02-28T13:52:15Z</time>
      </trkpt>
      <trkpt lat="45.81152" lon="4.26301">
        <ele>516.113</ele>
        <time>2019-02-28T13:52:22Z</time>
      </trkpt>
      <trkpt lat="45.81146" lon="4.26304">
        <ele>517.044</ele>
        <time>2019-02-28T13:52:28Z</time>
      </trkpt>
      <trkpt lat="45.81142" lon="4.26306">
        <ele>517.885</ele>
        <time>2019-02-28T13:52:33Z</time>
      </trkpt>
      <trkpt lat="45.81138" lon="4.26308">
        <ele>518.924</ele>
        <time>2019-02-28T13:52:39Z</time>
      </trkpt>
      <trkpt lat="45.81129" lon="4.26315">
        <ele>519.918</ele>
        <time>2019-02-28T13:52:45Z</time>
      </trkpt>
      <trkpt lat="45.81122" lon="4.26321">
        <ele>520.289</ele>
        <time>2019-02-28T13:52:51Z</time>
      </trkpt>
      <trkpt lat="45.81117" lon="4.26325">
        <ele>521.192</ele>
        <time>2019-02-28T13:52:57Z</time>
      </trkpt>
      <trkpt lat="45.81113" lon="4.26327">
        <ele>521.985</ele>
        <time>2019-02-28T13:53:02Z</time>
      </trkpt>
      <trkpt lat="45.81107" lon="4.26332">
        <ele>522.895</ele>
        <time>2019-02-28T13:53:08Z</time>
      </trkpt>
      <trkpt lat="45.81102" lon="4.26335">
        <ele>523.679</ele>
        <time>2019-02-28T13:53:13Z</time>
      </trkpt>
      <trkpt lat="45.81095" lon="4.26338">
        <ele>524.111</ele>
        <time>2019-02-28T13:53:19Z</time>
      </trkpt>
      <trkpt lat="45.8109" lon="4.26341">
        <ele>524.698</ele>
        <time>2019-02-28T13:53:24Z</time>
      </trkpt>
      <trkpt lat="45.81085" lon="4.26348">
        <ele>525.338</ele>
        <time>2019-02-28T13:53:30Z</time>
      </trkpt>
      <trkpt lat="45.81079" lon="4.2635">
        <ele>525.782</ele>
        <time>2019-02-28T13:53:36Z</time>
      </trkpt>
      <trkpt lat="45.8108" lon="4.26346">
        <ele>526.178</ele>
        <time>2019-02-28T13:53:42Z</time>
      </trkpt>
      <trkpt lat="45.8108" lon="4.26343">
        <ele>526.486</ele>
        <time>2019-02-28T13:53:48Z</time>
      </trkpt>
      <trkpt lat="45.81082" lon="4.26342">
        <ele>526.567</ele>
        <time>2019-02-28T13:53:53Z</time>
      </trkpt>
      <trkpt lat="45.81082" lon="4.26343">
        <ele>526.659</ele>
        <time>2019-02-28T13:53:59Z</time>
      </trkpt>
      <trkpt lat="45.81083" lon="4.26342">
        <ele>526.56</ele>
        <time>2019-02-28T13:54:04Z</time>
      </trkpt>
      <trkpt lat="45.81078" lon="4.26346">
        <ele>526.586</ele>
        <time>2019-02-28T13:54:10Z</time>
      </trkpt>
      <trkpt lat="45.8107" lon="4.26354">
        <ele>526.754</ele>
        <time>2019-02-28T13:54:16Z</time>
      </trkpt>
      <trkpt lat="45.81061" lon="4.26358">
        <ele>527.207</ele>
        <time>2019-02-28T13:54:22Z</time>
      </trkpt>
      <trkpt lat="45.81054" lon="4.26356">
        <ele>528.028</ele>
        <time>2019-02-28T13:54:28Z</time>
      </trkpt>
      <trkpt lat="45.81047" lon="4.26357">
        <ele>528.356</ele>
        <time>2019-02-28T13:54:34Z</time>
      </trkpt>
      <trkpt lat="45.81041" lon="4.26358">
        <ele>528.375</ele>
        <time>2019-02-28T13:54:40Z</time>
      </trkpt>
      <trkpt lat="45.81036" lon="4.2636">
        <ele>528.17</ele>
        <time>2019-02-28T13:54:45Z</time>
      </trkpt>
      <trkpt lat="45.81028" lon="4.26362">
        <ele>528.089</ele>
        <time>2019-02-28T13:54:50Z</time>
      </trkpt>
      <trkpt lat="45.8102" lon="4.26366">
        <ele>528.544</ele>
        <time>2019-02-28T13:54:56Z</time>
      </trkpt>
      <trkpt lat="45.81014" lon="4.2637">
        <ele>529.239</ele>
        <time>2019-02-28T13:55:02Z</time>
      </trkpt>
      <trkpt lat="45.81009" lon="4.26375">
        <ele>529.811</ele>
        <time>2019-02-28T13:55:07Z</time>
      </trkpt>
      <trkpt lat="45.81004" lon="4.26382">
        <ele>530.286</ele>
        <time>2019-02-28T13:55:13Z</time>
      </trkpt>
      <trkpt lat="45.80996" lon="4.26391">
        <ele>530.453</ele>
        <time>2019-02-28T13:55:19Z</time>
      </trkpt>
      <trkpt lat="45.80991" lon="4.26395">
        <ele>530.851</ele>
        <time>2019-02-28T13:55:25Z</time>
      </trkpt>
      <trkpt lat="45.80984" lon="4.26398">
        <ele>531.225</ele>
        <time>2019-02-28T13:55:31Z</time>
      </trkpt>
      <trkpt lat="45.80978" lon="4.26404">
        <ele>531.042</ele>
        <time>2019-02-28T13:55:37Z</time>
      </trkpt>
      <trkpt lat="45.80973" lon="4.26409">
        <ele>530.932</ele>
        <time>2019-02-28T13:55:43Z</time>
      </trkpt>
      <trkpt lat="45.80968" lon="4.26415">
        <ele>530.994</ele>
        <time>2019-02-28T13:55:49Z</time>
      </trkpt>
      <trkpt lat="45.80961" lon="4.26424">
        <ele>530.705</ele>
        <time>2019-02-28T13:55:55Z</time>
      </trkpt>
      <trkpt lat="45.80956" lon="4.26431">
        <ele>530.556</ele>
        <time>2019-02-28T13:56:00Z</time>
      </trkpt>
      <trkpt lat="45.80949" lon="4.26439">
        <ele>530.559</ele>
        <time>2019-02-28T13:56:06Z</time>
      </trkpt>
      <trkpt lat="45.80942" lon="4.26451">
        <ele>531.103</ele>
        <time>2019-02-28T13:56:12Z</time>
      </trkpt>
      <trkpt lat="45.80936" lon="4.26458">
        <ele>531.829</ele>
        <time>2019-02-28T13:56:17Z</time>
      </trkpt>
      <trkpt lat="45.80931" lon="4.26463">
        <ele>532.605</ele>
        <time>2019-02-28T13:56:22Z</time>
      </trkpt>
      <trkpt lat="45.80926" lon="4.26469">
        <ele>533.425</ele>
        <time>2019-02-28T13:56:28Z</time>
      </trkpt>
      <trkpt lat="45.80917" lon="4.26477">
        <ele>533.71</ele>
        <time>2019-02-28T13:56:34Z</time>
      </trkpt>
      <trkpt lat="45.80914" lon="4.26481">
        <ele>533.49</ele>
        <time>2019-02-28T13:56:40Z</time>
      </trkpt>
      <trkpt lat="45.80908" lon="4.26488">
        <ele>533.51</ele>
        <time>2019-02-28T13:56:46Z</time>
      </trkpt>
      <trkpt lat="45.80899" lon="4.265">
        <ele>533.501</ele>
        <time>2019-02-28T13:56:52Z</time>
      </trkpt>
      <trkpt lat="45.80893" lon="4.26509">
        <ele>533.023</ele>
        <time>2019-02-28T13:56:58Z</time>
      </trkpt>
      <trkpt lat="45.80888" lon="4.26516">
        <ele>532.973</ele>
        <time>2019-02-28T13:57:03Z</time>
      </trkpt>
      <trkpt lat="45.80882" lon="4.26523">
        <ele>533.091</ele>
        <time>2019-02-28T13:57:09Z</time>
      </trkpt>
      <trkpt lat="45.80877" lon="4.26529">
        <ele>533.383</ele>
        <time>2019-02-28T13:57:15Z</time>
      </trkpt>
      <trkpt lat="45.80872" lon="4.26536">
        <ele>533.373</ele>
        <time>2019-02-28T13:57:20Z</time>
      </trkpt>
      <trkpt lat="45.80867" lon="4.26546">
        <ele>533.461</ele>
        <time>2019-02-28T13:57:25Z</time>
      </trkpt>
      <trkpt lat="45.8086" lon="4.26555">
        <ele>534.087</ele>
        <time>2019-02-28T13:57:31Z</time>
      </trkpt>
      <trkpt lat="45.80855" lon="4.26565">
        <ele>534.482</ele>
        <time>2019-02-28T13:57:37Z</time>
      </trkpt>
      <trkpt lat="45.80849" lon="4.26573">
        <ele>534.386</ele>
        <time>2019-02-28T13:57:42Z</time>
      </trkpt>
      <trkpt lat="45.80844" lon="4.26582">
        <ele>534.377</ele>
        <time>2019-02-28T13:57:48Z</time>
      </trkpt>
      <trkpt lat="45.8084" lon="4.2659">
        <ele>534.321</ele>
        <time>2019-02-28T13:57:53Z</time>
      </trkpt>
      <trkpt lat="45.80833" lon="4.26602">
        <ele>534.089</ele>
        <time>2019-02-28T13:57:59Z</time>
      </trkpt>
      <trkpt lat="45.80829" lon="4.26607">
        <ele>534.337</ele>
        <time>2019-02-28T13:58:04Z</time>
      </trkpt>
      <trkpt lat="45.80826" lon="4.26615">
        <ele>534.369</ele>
        <time>2019-02-28T13:58:09Z</time>
      </trkpt>
      <trkpt lat="45.80822" lon="4.26624">
        <ele>534.343</ele>
        <time>2019-02-28T13:58:14Z</time>
      </trkpt>
      <trkpt lat="45.80818" lon="4.26633">
        <ele>534.434</ele>
        <time>2019-02-28T13:58:20Z</time>
      </trkpt>
      <trkpt lat="45.80814" lon="4.26641">
        <ele>534.523</ele>
        <time>2019-02-28T13:58:26Z</time>
      </trkpt>
      <trkpt lat="45.80807" lon="4.2665">
        <ele>534.516</ele>
        <time>2019-02-28T13:58:31Z</time>
      </trkpt>
      <trkpt lat="45.80803" lon="4.26657">
        <ele>534.331</ele>
        <time>2019-02-28T13:58:36Z</time>
      </trkpt>
      <trkpt lat="45.80799" lon="4.26669">
        <ele>534.24</ele>
        <time>2019-02-28T13:58:42Z</time>
      </trkpt>
      <trkpt lat="45.80795" lon="4.26678">
        <ele>534.126</ele>
        <time>2019-02-28T13:58:47Z</time>
      </trkpt>
      <trkpt lat="45.80793" lon="4.2669">
        <ele>534.165</ele>
        <time>2019-02-28T13:58:53Z</time>
      </trkpt>
      <trkpt lat="45.80791" lon="4.267">
        <ele>533.983</ele>
        <time>2019-02-28T13:58:59Z</time>
      </trkpt>
      <trkpt lat="45.80789" lon="4.2671">
        <ele>534.012</ele>
        <time>2019-02-28T13:59:04Z</time>
      </trkpt>
      <trkpt lat="45.80785" lon="4.26719">
        <ele>534.131</ele>
        <time>2019-02-28T13:59:09Z</time>
      </trkpt>
      <trkpt lat="45.80783" lon="4.26729">
        <ele>534.175</ele>
        <time>2019-02-28T13:59:14Z</time>
      </trkpt>
      <trkpt lat="45.8078" lon="4.26742">
        <ele>533.677</ele>
        <time>2019-02-28T13:59:20Z</time>
      </trkpt>
      <trkpt lat="45.80778" lon="4.26752">
        <ele>533.345</ele>
        <time>2019-02-28T13:59:25Z</time>
      </trkpt>
      <trkpt lat="45.80774" lon="4.26763">
        <ele>533.322</ele>
        <time>2019-02-28T13:59:30Z</time>
      </trkpt>
      <trkpt lat="45.80768" lon="4.26774">
        <ele>533.247</ele>
        <time>2019-02-28T13:59:36Z</time>
      </trkpt>
      <trkpt lat="45.80764" lon="4.26783">
        <ele>533.056</ele>
        <time>2019-02-28T13:59:42Z</time>
      </trkpt>
      <trkpt lat="45.8076" lon="4.26791">
        <ele>532.824</ele>
        <time>2019-02-28T13:59:47Z</time>
      </trkpt>
      <trkpt lat="45.80752" lon="4.26801">
        <ele>532.575</ele>
        <time>2019-02-28T13:59:53Z</time>
      </trkpt>
      <trkpt lat="45.80747" lon="4.26808">
        <ele>532.716</ele>
        <time>2019-02-28T13:59:59Z</time>
      </trkpt>
      <trkpt lat="45.80741" lon="4.26817">
        <ele>532.411</ele>
        <time>2019-02-28T14:00:04Z</time>
      </trkpt>
      <trkpt lat="45.80735" lon="4.26826">
        <ele>532.188</ele>
        <time>2019-02-28T14:00:09Z</time>
      </trkpt>
      <trkpt lat="45.80729" lon="4.26836">
        <ele>531.94</ele>
        <time>2019-02-28T14:00:15Z</time>
      </trkpt>
      <trkpt lat="45.80724" lon="4.26846">
        <ele>531.35</ele>
        <time>2019-02-28T14:00:21Z</time>
      </trkpt>
      <trkpt lat="45.80721" lon="4.26852">
        <ele>530.615</ele>
        <time>2019-02-28T14:00:26Z</time>
      </trkpt>
      <trkpt lat="45.80717" lon="4.26864">
        <ele>529.838</ele>
        <time>2019-02-28T14:00:32Z</time>
      </trkpt>
      <trkpt lat="45.80714" lon="4.26873">
        <ele>529.375</ele>
        <time>2019-02-28T14:00:37Z</time>
      </trkpt>
      <trkpt lat="45.80711" lon="4.26883">
        <ele>529.095</ele>
        <time>2019-02-28T14:00:43Z</time>
      </trkpt>
      <trkpt lat="45.80707" lon="4.26891">
        <ele>529.226</ele>
        <time>2019-02-28T14:00:48Z</time>
      </trkpt>
      <trkpt lat="45.80703" lon="4.26898">
        <ele>529.098</ele>
        <time>2019-02-28T14:00:54Z</time>
      </trkpt>
      <trkpt lat="45.80698" lon="4.26906">
        <ele>529.065</ele>
        <time>2019-02-28T14:01:00Z</time>
      </trkpt>
      <trkpt lat="45.80691" lon="4.26914">
        <ele>528.75</ele>
        <time>2019-02-28T14:01:06Z</time>
      </trkpt>
      <trkpt lat="45.80683" lon="4.26922">
        <ele>528.781</ele>
        <time>2019-02-28T14:01:12Z</time>
      </trkpt>
      <trkpt lat="45.80674" lon="4.26929">
        <ele>528.953</ele>
        <time>2019-02-28T14:01:18Z</time>
      </trkpt>
      <trkpt lat="45.80667" lon="4.26933">
        <ele>529.467</ele>
        <time>2019-02-28T14:01:23Z</time>
      </trkpt>
      <trkpt lat="45.80659" lon="4.26937">
        <ele>530.127</ele>
        <time>2019-02-28T14:01:29Z</time>
      </trkpt>
      <trkpt lat="45.80653" lon="4.26942">
        <ele>530.88</ele>
        <time>2019-02-28T14:01:34Z</time>
      </trkpt>
      <trkpt lat="45.80645" lon="4.26946">
        <ele>531.716</ele>
        <time>2019-02-28T14:01:40Z</time>
      </trkpt>
      <trkpt lat="45.80638" lon="4.26951">
        <ele>532.782</ele>
        <time>2019-02-28T14:01:46Z</time>
      </trkpt>
      <trkpt lat="45.80631" lon="4.26958">
        <ele>533.419</ele>
        <time>2019-02-28T14:01:52Z</time>
      </trkpt>
      <trkpt lat="45.80626" lon="4.26962">
        <ele>533.511</ele>
        <time>2019-02-28T14:01:57Z</time>
      </trkpt>
      <trkpt lat="45.80618" lon="4.26967">
        <ele>533.981</ele>
        <time>2019-02-28T14:02:03Z</time>
      </trkpt>
      <trkpt lat="45.80612" lon="4.26974">
        <ele>534.425</ele>
        <time>2019-02-28T14:02:09Z</time>
      </trkpt>
      <trkpt lat="45.80605" lon="4.26982">
        <ele>534.656</ele>
        <time>2019-02-28T14:02:15Z</time>
      </trkpt>
      <trkpt lat="45.80597" lon="4.26986">
        <ele>534.939</ele>
        <time>2019-02-28T14:02:21Z</time>
      </trkpt>
      <trkpt lat="45.80589" lon="4.26991">
        <ele>534.943</ele>
        <time>2019-02-28T14:02:27Z</time>
      </trkpt>
      <trkpt lat="45.80584" lon="4.26996">
        <ele>535.28</ele>
        <time>2019-02-28T14:02:32Z</time>
      </trkpt>
      <trkpt lat="45.80579" lon="4.27002">
        <ele>535.097</ele>
        <time>2019-02-28T14:02:37Z</time>
      </trkpt>
      <trkpt lat="45.80574" lon="4.27007">
        <ele>535.489</ele>
        <time>2019-02-28T14:02:43Z</time>
      </trkpt>
      <trkpt lat="45.80568" lon="4.27011">
        <ele>536.129</ele>
        <time>2019-02-28T14:02:49Z</time>
      </trkpt>
      <trkpt lat="45.80562" lon="4.27017">
        <ele>536.618</ele>
        <time>2019-02-28T14:02:54Z</time>
      </trkpt>
      <trkpt lat="45.80557" lon="4.27023">
        <ele>537.008</ele>
        <time>2019-02-28T14:02:59Z</time>
      </trkpt>
      <trkpt lat="45.80552" lon="4.27029">
        <ele>537.185</ele>
        <time>2019-02-28T14:03:04Z</time>
      </trkpt>
      <trkpt lat="45.80547" lon="4.27037">
        <ele>537.698</ele>
        <time>2019-02-28T14:03:10Z</time>
      </trkpt>
      <trkpt lat="45.80542" lon="4.27044">
        <ele>538.275</ele>
        <time>2019-02-28T14:03:15Z</time>
      </trkpt>
      <trkpt lat="45.80538" lon="4.27052">
        <ele>538.991</ele>
        <time>2019-02-28T14:03:20Z</time>
      </trkpt>
      <trkpt lat="45.80532" lon="4.27062">
        <ele>539.494</ele>
        <time>2019-02-28T14:03:26Z</time>
      </trkpt>
      <trkpt lat="45.80526" lon="4.2707">
        <ele>539.868</ele>
        <time>2019-02-28T14:03:32Z</time>
      </trkpt>
      <trkpt lat="45.80523" lon="4.27079">
        <ele>540.053</ele>
        <time>2019-02-28T14:03:38Z</time>
      </trkpt>
      <trkpt lat="45.80517" lon="4.27086">
        <ele>540.156</ele>
        <time>2019-02-28T14:03:43Z</time>
      </trkpt>
      <trkpt lat="45.80514" lon="4.27096">
        <ele>540.324</ele>
        <time>2019-02-28T14:03:49Z</time>
      </trkpt>
      <trkpt lat="45.80513" lon="4.27098">
        <ele>540.48</ele>
        <time>2019-02-28T14:03:55Z</time>
      </trkpt>
      <trkpt lat="45.80512" lon="4.27099">
        <ele>540.655</ele>
        <time>2019-02-28T14:04:01Z</time>
      </trkpt>
      <trkpt lat="45.80511" lon="4.27101">
        <ele>540.759</ele>
        <time>2019-02-28T14:04:07Z</time>
      </trkpt>
      <trkpt lat="45.80511" lon="4.27103">
        <ele>541.17</ele>
        <time>2019-02-28T14:04:12Z</time>
      </trkpt>
      <trkpt lat="45.80509" lon="4.27109">
        <ele>541.37</ele>
        <time>2019-02-28T14:04:17Z</time>
      </trkpt>
      <trkpt lat="45.80502" lon="4.27111">
        <ele>541.99</ele>
        <time>2019-02-28T14:04:23Z</time>
      </trkpt>
      <trkpt lat="45.80497" lon="4.27107">
        <ele>542.291</ele>
        <time>2019-02-28T14:04:28Z</time>
      </trkpt>
      <trkpt lat="45.8049" lon="4.27102">
        <ele>542.549</ele>
        <time>2019-02-28T14:04:34Z</time>
      </trkpt>
      <trkpt lat="45.80483" lon="4.27094">
        <ele>542.467</ele>
        <time>2019-02-28T14:04:39Z</time>
      </trkpt>
      <trkpt lat="45.80477" lon="4.27084">
        <ele>542.351</ele>
        <time>2019-02-28T14:04:45Z</time>
      </trkpt>
      <trkpt lat="45.80472" lon="4.27076">
        <ele>542.183</ele>
        <time>2019-02-28T14:04:50Z</time>
      </trkpt>
      <trkpt lat="45.80467" lon="4.27067">
        <ele>541.457</ele>
        <time>2019-02-28T14:04:56Z</time>
      </trkpt>
      <trkpt lat="45.80462" lon="4.27058">
        <ele>540.829</ele>
        <time>2019-02-28T14:05:02Z</time>
      </trkpt>
      <trkpt lat="45.80456" lon="4.2705">
        <ele>540.544</ele>
        <time>2019-02-28T14:05:07Z</time>
      </trkpt>
      <trkpt lat="45.8045" lon="4.27041">
        <ele>539.751</ele>
        <time>2019-02-28T14:05:12Z</time>
      </trkpt>
      <trkpt lat="45.80443" lon="4.27033">
        <ele>538.753</ele>
        <time>2019-02-28T14:05:18Z</time>
      </trkpt>
      <trkpt lat="45.80437" lon="4.27022">
        <ele>538.308</ele>
        <time>2019-02-28T14:05:24Z</time>
      </trkpt>
      <trkpt lat="45.80431" lon="4.27014">
        <ele>537.846</ele>
        <time>2019-02-28T14:05:29Z</time>
      </trkpt>
      <trkpt lat="45.80427" lon="4.27006">
        <ele>537.303</ele>
        <time>2019-02-28T14:05:34Z</time>
      </trkpt>
      <trkpt lat="45.8042" lon="4.26996">
        <ele>536.917</ele>
        <time>2019-02-28T14:05:40Z</time>
      </trkpt>
      <trkpt lat="45.80416" lon="4.26989">
        <ele>536.715</ele>
        <time>2019-02-28T14:05:45Z</time>
      </trkpt>
      <trkpt lat="45.80411" lon="4.26981">
        <ele>536.373</ele>
        <time>2019-02-28T14:05:51Z</time>
      </trkpt>
      <trkpt lat="45.80411" lon="4.2698">
        <ele>536.436</ele>
        <time>2019-02-28T14:05:56Z</time>
      </trkpt>
      <trkpt lat="45.80411" lon="4.26979">
        <ele>536.283</ele>
        <time>2019-02-28T14:06:02Z</time>
      </trkpt>
      <trkpt lat="45.80411" lon="4.26977">
        <ele>536.289</ele>
        <time>2019-02-28T14:06:08Z</time>
      </trkpt>
      <trkpt lat="45.80412" lon="4.26976">
        <ele>536.251</ele>
        <time>2019-02-28T14:06:13Z</time>
      </trkpt>
      <trkpt lat="45.80413" lon="4.26974">
        <ele>536.1</ele>
        <time>2019-02-28T14:06:18Z</time>
      </trkpt>
      <trkpt lat="45.80413" lon="4.26973">
        <ele>535.628</ele>
        <time>2019-02-28T14:06:23Z</time>
      </trkpt>
      <trkpt lat="45.80411" lon="4.26975">
        <ele>535.642</ele>
        <time>2019-02-28T14:06:29Z</time>
      </trkpt>
      <trkpt lat="45.8041" lon="4.26974">
        <ele>535.556</ele>
        <time>2019-02-28T14:06:35Z</time>
      </trkpt>
      <trkpt lat="45.80403" lon="4.26968">
        <ele>535.248</ele>
        <time>2019-02-28T14:06:41Z</time>
      </trkpt>
      <trkpt lat="45.80393" lon="4.26969">
        <ele>535.164</ele>
        <time>2019-02-28T14:06:46Z</time>
      </trkpt>
      <trkpt lat="45.80383" lon="4.2697">
        <ele>535.419</ele>
        <time>2019-02-28T14:06:52Z</time>
      </trkpt>
      <trkpt lat="45.80375" lon="4.26971">
        <ele>535.477</ele>
        <time>2019-02-28T14:06:57Z</time>
      </trkpt>
      <trkpt lat="45.80367" lon="4.26971">
        <ele>535.449</ele>
        <time>2019-02-28T14:07:03Z</time>
      </trkpt>
      <trkpt lat="45.80359" lon="4.26972">
        <ele>534.986</ele>
        <time>2019-02-28T14:07:08Z</time>
      </trkpt>
      <trkpt lat="45.8035" lon="4.26974">
        <ele>534.351</ele>
        <time>2019-02-28T14:07:14Z</time>
      </trkpt>
      <trkpt lat="45.80343" lon="4.26974">
        <ele>533.957</ele>
        <time>2019-02-28T14:07:20Z</time>
      </trkpt>
      <trkpt lat="45.80333" lon="4.26974">
        <ele>533.169</ele>
        <time>2019-02-28T14:07:26Z</time>
      </trkpt>
      <trkpt lat="45.80322" lon="4.26974">
        <ele>532.352</ele>
        <time>2019-02-28T14:07:32Z</time>
      </trkpt>
      <trkpt lat="45.80314" lon="4.26974">
        <ele>531.757</ele>
        <time>2019-02-28T14:07:38Z</time>
      </trkpt>
      <trkpt lat="45.80306" lon="4.26976">
        <ele>531.899</ele>
        <time>2019-02-28T14:07:44Z</time>
      </trkpt>
      <trkpt lat="45.80295" lon="4.26976">
        <ele>531.696</ele>
        <time>2019-02-28T14:07:50Z</time>
      </trkpt>
      <trkpt lat="45.80289" lon="4.26977">
        <ele>531.207</ele>
        <time>2019-02-28T14:07:55Z</time>
      </trkpt>
      <trkpt lat="45.80281" lon="4.26979">
        <ele>530.914</ele>
        <time>2019-02-28T14:08:01Z</time>
      </trkpt>
      <trkpt lat="45.8027" lon="4.2698">
        <ele>530.258</ele>
        <time>2019-02-28T14:08:07Z</time>
      </trkpt>
      <trkpt lat="45.80262" lon="4.26981">
        <ele>529.67</ele>
        <time>2019-02-28T14:08:13Z</time>
      </trkpt>
      <trkpt lat="45.80255" lon="4.2698">
        <ele>529.162</ele>
        <time>2019-02-28T14:08:19Z</time>
      </trkpt>
      <trkpt lat="45.80247" lon="4.2698">
        <ele>528.793</ele>
        <time>2019-02-28T14:08:24Z</time>
      </trkpt>
      <trkpt lat="45.80242" lon="4.26981">
        <ele>528.419</ele>
        <time>2019-02-28T14:08:29Z</time>
      </trkpt>
      <trkpt lat="45.80235" lon="4.26986">
        <ele>528.278</ele>
        <time>2019-02-28T14:08:35Z</time>
      </trkpt>
      <trkpt lat="45.80223" lon="4.2699">
        <ele>527.824</ele>
        <time>2019-02-28T14:08:41Z</time>
      </trkpt>
      <trkpt lat="45.80214" lon="4.26994">
        <ele>527.266</ele>
        <time>2019-02-28T14:08:47Z</time>
      </trkpt>
      <trkpt lat="45.80207" lon="4.26993">
        <ele>526.735</ele>
        <time>2019-02-28T14:08:52Z</time>
      </trkpt>
      <trkpt lat="45.80203" lon="4.26988">
        <ele>526.623</ele>
        <time>2019-02-28T14:08:57Z</time>
      </trkpt>
      <trkpt lat="45.80197" lon="4.26981">
        <ele>526.276</ele>
        <time>2019-02-28T14:09:03Z</time>
      </trkpt>
      <trkpt lat="45.80192" lon="4.26975">
        <ele>525.839</ele>
        <time>2019-02-28T14:09:08Z</time>
      </trkpt>
      <trkpt lat="45.80186" lon="4.26967">
        <ele>525.798</ele>
        <time>2019-02-28T14:09:14Z</time>
      </trkpt>
      <trkpt lat="45.80182" lon="4.26959">
        <ele>525.898</ele>
        <time>2019-02-28T14:09:19Z</time>
      </trkpt>
      <trkpt lat="45.80177" lon="4.26953">
        <ele>526.158</ele>
        <time>2019-02-28T14:09:24Z</time>
      </trkpt>
      <trkpt lat="45.80173" lon="4.26949">
        <ele>526.629</ele>
        <time>2019-02-28T14:09:29Z</time>
      </trkpt>
      <trkpt lat="45.80165" lon="4.26943">
        <ele>526.688</ele>
        <time>2019-02-28T14:09:35Z</time>
      </trkpt>
      <trkpt lat="45.8016" lon="4.26937">
        <ele>526.935</ele>
        <time>2019-02-28T14:09:40Z</time>
      </trkpt>
      <trkpt lat="45.80152" lon="4.26929">
        <ele>527.532</ele>
        <time>2019-02-28T14:09:46Z</time>
      </trkpt>
      <trkpt lat="45.80145" lon="4.26922">
        <ele>527.849</ele>
        <time>2019-02-28T14:09:52Z</time>
      </trkpt>
      <trkpt lat="45.80139" lon="4.26915">
        <ele>528.218</ele>
        <time>2019-02-28T14:09:58Z</time>
      </trkpt>
      <trkpt lat="45.80135" lon="4.26912">
        <ele>528.617</ele>
        <time>2019-02-28T14:10:03Z</time>
      </trkpt>
      <trkpt lat="45.80129" lon="4.26906">
        <ele>529.03</ele>
        <time>2019-02-28T14:10:09Z</time>
      </trkpt>
      <trkpt lat="45.80122" lon="4.26899">
        <ele>529.395</ele>
        <time>2019-02-28T14:10:15Z</time>
      </trkpt>
      <trkpt lat="45.80117" lon="4.26895">
        <ele>529.735</ele>
        <time>2019-02-28T14:10:21Z</time>
      </trkpt>
      <trkpt lat="45.80109" lon="4.26888">
        <ele>530.229</ele>
        <time>2019-02-28T14:10:27Z</time>
      </trkpt>
      <trkpt lat="45.80104" lon="4.26882">
        <ele>530.786</ele>
        <time>2019-02-28T14:10:33Z</time>
      </trkpt>
      <trkpt lat="45.80099" lon="4.26878">
        <ele>530.839</ele>
        <time>2019-02-28T14:10:38Z</time>
      </trkpt>
      <trkpt lat="45.80091" lon="4.2687">
        <ele>531.098</ele>
        <time>2019-02-28T14:10:44Z</time>
      </trkpt>
      <trkpt lat="45.80084" lon="4.26865">
        <ele>531.803</ele>
        <time>2019-02-28T14:10:50Z</time>
      </trkpt>
      <trkpt lat="45.80073" lon="4.26866">
        <ele>532.55</ele>
        <time>2019-02-28T14:10:56Z</time>
      </trkpt>
      <trkpt lat="45.80068" lon="4.26867">
        <ele>533.024</ele>
        <time>2019-02-28T14:11:01Z</time>
      </trkpt>
      <trkpt lat="45.80059" lon="4.26867">
        <ele>533.69</ele>
        <time>2019-02-28T14:11:07Z</time>
      </trkpt>
      <trkpt lat="45.80049" lon="4.26866">
        <ele>534.074</ele>
        <time>2019-02-28T14:11:13Z</time>
      </trkpt>
      <trkpt lat="45.80043" lon="4.26866">
        <ele>534.38</ele>
        <time>2019-02-28T14:11:18Z</time>
      </trkpt>
      <trkpt lat="45.80034" lon="4.26866">
        <ele>534.627</ele>
        <time>2019-02-28T14:11:24Z</time>
      </trkpt>
      <trkpt lat="45.80026" lon="4.26872">
        <ele>534.91</ele>
        <time>2019-02-28T14:11:30Z</time>
      </trkpt>
      <trkpt lat="45.80024" lon="4.26882">
        <ele>535.064</ele>
        <time>2019-02-28T14:11:36Z</time>
      </trkpt>
      <trkpt lat="45.80024" lon="4.26896">
        <ele>535.179</ele>
        <time>2019-02-28T14:11:42Z</time>
      </trkpt>
      <trkpt lat="45.80025" lon="4.26906">
        <ele>535.407</ele>
        <time>2019-02-28T14:11:47Z</time>
      </trkpt>
      <trkpt lat="45.80025" lon="4.26914">
        <ele>535.591</ele>
        <time>2019-02-28T14:11:53Z</time>
      </trkpt>
      <trkpt lat="45.80025" lon="4.26926">
        <ele>535.663</ele>
        <time>2019-02-28T14:11:58Z</time>
      </trkpt>
      <trkpt lat="45.80025" lon="4.26937">
        <ele>535.585</ele>
        <time>2019-02-28T14:12:03Z</time>
      </trkpt>
      <trkpt lat="45.80025" lon="4.26949">
        <ele>535.564</ele>
        <time>2019-02-28T14:12:09Z</time>
      </trkpt>
      <trkpt lat="45.80026" lon="4.26962">
        <ele>535.692</ele>
        <time>2019-02-28T14:12:15Z</time>
      </trkpt>
      <trkpt lat="45.80027" lon="4.26971">
        <ele>535.851</ele>
        <time>2019-02-28T14:12:20Z</time>
      </trkpt>
      <trkpt lat="45.80029" lon="4.26984">
        <ele>536.219</ele>
        <time>2019-02-28T14:12:26Z</time>
      </trkpt>
      <trkpt lat="45.8003" lon="4.26993">
        <ele>536.745</ele>
        <time>2019-02-28T14:12:32Z</time>
      </trkpt>
      <trkpt lat="45.80031" lon="4.27006">
        <ele>537.23</ele>
        <time>2019-02-28T14:12:37Z</time>
      </trkpt>
      <trkpt lat="45.80031" lon="4.27015">
        <ele>537.532</ele>
        <time>2019-02-28T14:12:42Z</time>
      </trkpt>
      <trkpt lat="45.80031" lon="4.27028">
        <ele>537.621</ele>
        <time>2019-02-28T14:12:48Z</time>
      </trkpt>
      <trkpt lat="45.80031" lon="4.27039">
        <ele>537.561</ele>
        <time>2019-02-28T14:12:54Z</time>
      </trkpt>
      <trkpt lat="45.8003" lon="4.27049">
        <ele>537.479</ele>
        <time>2019-02-28T14:13:00Z</time>
      </trkpt>
      <trkpt lat="45.80028" lon="4.27063">
        <ele>537.342</ele>
        <time>2019-02-28T14:13:06Z</time>
      </trkpt>
      <trkpt lat="45.80028" lon="4.27072">
        <ele>537.266</ele>
        <time>2019-02-28T14:13:11Z</time>
      </trkpt>
      <trkpt lat="45.80029" lon="4.27087">
        <ele>537.366</ele>
        <time>2019-02-28T14:13:17Z</time>
      </trkpt>
      <trkpt lat="45.80029" lon="4.27098">
        <ele>536.795</ele>
        <time>2019-02-28T14:13:23Z</time>
      </trkpt>
      <trkpt lat="45.8003" lon="4.27109">
        <ele>536.641</ele>
        <time>2019-02-28T14:13:28Z</time>
      </trkpt>
      <trkpt lat="45.8003" lon="4.2712">
        <ele>536.296</ele>
        <time>2019-02-28T14:13:34Z</time>
      </trkpt>
      <trkpt lat="45.80031" lon="4.27132">
        <ele>536.508</ele>
        <time>2019-02-28T14:13:39Z</time>
      </trkpt>
      <trkpt lat="45.8003" lon="4.27142">
        <ele>536.664</ele>
        <time>2019-02-28T14:13:45Z</time>
      </trkpt>
      <trkpt lat="45.8003" lon="4.27145">
        <ele>536.733</ele>
        <time>2019-02-28T14:13:51Z</time>
      </trkpt>
      <trkpt lat="45.80031" lon="4.27152">
        <ele>537.207</ele>
        <time>2019-02-28T14:13:56Z</time>
      </trkpt>
      <trkpt lat="45.80032" lon="4.27163">
        <ele>537.386</ele>
        <time>2019-02-28T14:14:01Z</time>
      </trkpt>
      <trkpt lat="45.80033" lon="4.27177">
        <ele>537.042</ele>
        <time>2019-02-28T14:14:07Z</time>
      </trkpt>
      <trkpt lat="45.80033" lon="4.27189">
        <ele>536.874</ele>
        <time>2019-02-28T14:14:13Z</time>
      </trkpt>
      <trkpt lat="45.80034" lon="4.27199">
        <ele>536.394</ele>
        <time>2019-02-28T14:14:18Z</time>
      </trkpt>
      <trkpt lat="45.80037" lon="4.27213">
        <ele>536.109</ele>
        <time>2019-02-28T14:14:24Z</time>
      </trkpt>
      <trkpt lat="45.80039" lon="4.27226">
        <ele>536.137</ele>
        <time>2019-02-28T14:14:30Z</time>
      </trkpt>
      <trkpt lat="45.80042" lon="4.27238">
        <ele>536.402</ele>
        <time>2019-02-28T14:14:36Z</time>
      </trkpt>
      <trkpt lat="45.80044" lon="4.27249">
        <ele>536.453</ele>
        <time>2019-02-28T14:14:41Z</time>
      </trkpt>
      <trkpt lat="45.80046" lon="4.27261">
        <ele>536.493</ele>
        <time>2019-02-28T14:14:47Z</time>
      </trkpt>
      <trkpt lat="45.80049" lon="4.27271">
        <ele>536.916</ele>
        <time>2019-02-28T14:14:53Z</time>
      </trkpt>
      <trkpt lat="45.8005" lon="4.2728">
        <ele>537.128</ele>
        <time>2019-02-28T14:14:59Z</time>
      </trkpt>
      <trkpt lat="45.80052" lon="4.27288">
        <ele>537.326</ele>
        <time>2019-02-28T14:15:05Z</time>
      </trkpt>
      <trkpt lat="45.80053" lon="4.27288">
        <ele>537.571</ele>
        <time>2019-02-28T14:15:11Z</time>
      </trkpt>
      <trkpt lat="45.80053" lon="4.2729">
        <ele>537.724</ele>
        <time>2019-02-28T14:15:17Z</time>
      </trkpt>
      <trkpt lat="45.80052" lon="4.27293">
        <ele>538.072</ele>
        <time>2019-02-28T14:15:22Z</time>
      </trkpt>
      <trkpt lat="45.80051" lon="4.27293">
        <ele>538.231</ele>
        <time>2019-02-28T14:15:28Z</time>
      </trkpt>
      <trkpt lat="45.80049" lon="4.27295">
        <ele>538.207</ele>
        <time>2019-02-28T14:15:33Z</time>
      </trkpt>
      <trkpt lat="45.80051" lon="4.27295">
        <ele>538.269</ele>
        <time>2019-02-28T14:15:39Z</time>
      </trkpt>
      <trkpt lat="45.80052" lon="4.27294">
        <ele>538.69</ele>
        <time>2019-02-28T14:15:45Z</time>
      </trkpt>
      <trkpt lat="45.80053" lon="4.27293">
        <ele>538.883</ele>
        <time>2019-02-28T14:15:50Z</time>
      </trkpt>
    </trkseg>
  </trk>
</gpx>